Observation data for South Plains 3ENE on 03/04/2021      Previous  Date  Next       Current Mesonet Observations  Soil Data  Daily Summary Page  Observations in Plain Language
KSP2 040600Z 24004KT 03/M12 A3003 RMK A01 T00271117  RH  034%=      5-min Rain = 0
KSP2 040601Z 24004KT 03/M12 A3003 RMK A01 T00281117  RH  033%=      5-min Rain = 0
KSP2 040602Z 24004KT 03/M12 A3003 RMK A01 T00281118  RH  033%=      5-min Rain = 0
KSP2 040603Z 24004KT 03/M12 A3003 RMK A01 T00291118  RH  033%=      5-min Rain = 0
KSP2 040604Z 24004KT 03/M12 A3003 RMK A01 T00291118  RH  033%=      5-min Rain = 0
KSP2 040605Z 24004KT 03/M12 A3003 RMK A01 T00301118  RH  033%=      5-min Rain = 0
KSP2 040606Z 24004KT 03/M12 A3002 RMK A01 T00301117  RH  033%=      5-min Rain = 0
KSP2 040607Z 25004KT 03/M12 A3002 RMK A01 T00281118  RH  033%=      5-min Rain = 0
KSP2 040608Z 25004KT 03/M12 A3002 RMK A01 T00271118  RH  034%=      5-min Rain = 0
KSP2 040609Z 26003KT 03/M12 A3002 RMK A01 T00261117  RH  034%=      5-min Rain = 0
KSP2 040610Z 25004KT 03/M12 A3002 RMK A01 T00261117  RH  034%=      5-min Rain = 0
KSP2 040611Z 25004KT 03/M12 A3002 RMK A01 T00261117  RH  034%=      5-min Rain = 0
KSP2 040612Z 24004KT 03/M12 A3002 RMK A01 T00251117  RH  034%=      5-min Rain = 0
KSP2 040613Z 25003KT 03/M12 A3002 RMK A01 T00261116  RH  034%=      5-min Rain = 0
KSP2 040614Z 25004KT 03/M12 A3002 RMK A01 T00251116  RH  034%=      5-min Rain = 0
KSP2 040615Z 25004KT 03/M12 A3002 RMK A01 T00251116  RH  034%=      5-min Rain = 0
KSP2 040616Z 26004KT 03/M12 A3002 RMK A01 T00251115  RH  035%=      5-min Rain = 0
KSP2 040617Z 25004KT 02/M12 A3002 RMK A01 T00241115  RH  035%=      5-min Rain = 0
KSP2 040618Z 26005KT 03/M11 A3002 RMK A01 T00251114  RH  035%=      5-min Rain = 0
KSP2 040619Z 26005KT 03/M11 A3002 RMK A01 T00251114  RH  035%=      5-min Rain = 0
KSP2 040620Z 26005KT 03/M11 A3002 RMK A01 T00261114  RH  035%=      5-min Rain = 0
KSP2 040621Z 26006KT 03/M11 A3002 RMK A01 T00271114  RH  034%=      5-min Rain = 0
KSP2 040622Z 26006KT 03/M11 A3002 RMK A01 T00291114  RH  034%=      5-min Rain = 0
KSP2 040623Z 25006KT 03/M11 A3002 RMK A01 T00291114  RH  034%=      5-min Rain = 0
KSP2 040624Z 25006KT 03/M11 A3002 RMK A01 T00301114  RH  034%=      5-min Rain = 0
KSP2 040625Z 26006KT 03/M11 A3002 RMK A01 T00321114  RH  033%=      5-min Rain = 0
KSP2 040626Z 25006KT 03/M11 A3002 RMK A01 T00331113  RH  033%=      5-min Rain = 0
KSP2 040627Z 26006KT 03/M11 A3002 RMK A01 T00341114  RH  033%=      5-min Rain = 0
KSP2 040628Z 26006KT 04/M11 A3002 RMK A01 T00371114  RH  032%=      5-min Rain = 0
KSP2 040629Z 27006KT 04/M11 A3002 RMK A01 T00371114  RH  032%=      5-min Rain = 0
KSP2 040630Z 27005KT 04/M12 A3002 RMK A01 T00361115  RH  032%=      5-min Rain = 0
KSP2 040631Z 28005KT 04/M12 A3002 RMK A01 T00361115  RH  032%=      5-min Rain = 0
KSP2 040632Z 28006KT 04/M11 A3002 RMK A01 T00351114  RH  033%=      5-min Rain = 0
KSP2 040633Z 28005KT 03/M11 A3002 RMK A01 T00341113  RH  033%=      5-min Rain = 0
KSP2 040634Z 29004KT 03/M11 A3002 RMK A01 T00321113  RH  033%=      5-min Rain = 0
KSP2 040635Z 28004KT 03/M11 A3002 RMK A01 T00321113  RH  034%=      5-min Rain = 0
KSP2 040636Z 28005KT 03/M11 A3001 RMK A01 T00311113  RH  034%=      5-min Rain = 0
KSP2 040637Z 28003KT 03/M11 A3002 RMK A01 T00311113  RH  034%=      5-min Rain = 0
KSP2 040638Z 27004KT 03/M11 A3002 RMK A01 T00311112  RH  034%=      5-min Rain = 0
KSP2 040639Z 27004KT 03/M11 A3001 RMK A01 T00311113  RH  034%=      5-min Rain = 0
KSP2 040640Z 27003KT 03/M11 A3001 RMK A01 T00311113  RH  034%=      5-min Rain = 0
KSP2 040641Z 27004KT 03/M11 A3001 RMK A01 T00311113  RH  034%=      5-min Rain = 0
KSP2 040642Z 27004KT 03/M11 A3001 RMK A01 T00311113  RH  034%=      5-min Rain = 0
KSP2 040643Z 27005KT 03/M11 A3001 RMK A01 T00311112  RH  034%=      5-min Rain = 0
KSP2 040644Z 27004KT 03/M11 A3001 RMK A01 T00301112  RH  034%=      5-min Rain = 0
KSP2 040645Z 27005KT 03/M11 A3001 RMK A01 T00291112  RH  035%=      5-min Rain = 0
KSP2 040646Z 26005KT 03/M11 A3001 RMK A01 T00281112  RH  035%=      5-min Rain = 0
KSP2 040647Z 26003KT 03/M11 A3001 RMK A01 T00281111  RH  035%=      5-min Rain = 0
KSP2 040648Z 27004KT 03/M11 A3001 RMK A01 T00271111  RH  035%=      5-min Rain = 0
KSP2 040649Z 25003KT 03/M11 A3001 RMK A01 T00271112  RH  035%=      5-min Rain = 0
KSP2 040650Z 26004KT 03/M11 A3001 RMK A01 T00271113  RH  035%=      5-min Rain = 0
KSP2 040651Z 26004KT 03/M11 A3001 RMK A01 T00271113  RH  035%=      5-min Rain = 0
KSP2 040652Z 27004KT 03/M11 A3001 RMK A01 T00271114  RH  035%=      5-min Rain = 0
KSP2 040653Z 27005KT 03/M11 A3001 RMK A01 T00281114  RH  034%=      5-min Rain = 0
KSP2 040654Z 26005KT 03/M11 A3002 RMK A01 T00291114  RH  034%=      5-min Rain = 0
KSP2 040655Z 27005KT 03/M11 A3002 RMK A01 T00291113  RH  034%=      5-min Rain = 0
KSP2 040656Z 27005KT 03/M11 A3002 RMK A01 T00271114  RH  035%=      5-min Rain = 0
KSP2 040657Z 27006KT 03/M11 A3002 RMK A01 T00261114  RH  035%=      5-min Rain = 0
KSP2 040658Z 27005KT 02/M11 A3002 RMK A01 T00241113  RH  035%=      5-min Rain = 0
KSP2 040659Z 27005KT 02/M11 A3002 RMK A01 T00231114  RH  036%=      5-min Rain = 0
KSP2 040700Z 27006KT 02/M11 A3002 RMK A01 T00231114  RH  036%=      5-min Rain = 0
KSP2 040701Z 27005KT 02/M12 A3002 RMK A01 T00231115  RH  036%=      5-min Rain = 0
KSP2 040702Z 27006KT 02/M12 A3002 RMK A01 T00231115  RH  035%=      5-min Rain = 0
KSP2 040703Z 27005KT 02/M12 A3002 RMK A01 T00231115  RH  035%=      5-min Rain = 0
KSP2 040704Z 27006KT 02/M12 A3002 RMK A01 T00231115  RH  035%=      5-min Rain = 0
KSP2 040705Z 27005KT 02/M12 A3002 RMK A01 T00241115  RH  035%=      5-min Rain = 0
KSP2 040706Z 27006KT 02/M12 A3002 RMK A01 T00231116  RH  035%=      5-min Rain = 0
KSP2 040707Z 27004KT 02/M12 A3002 RMK A01 T00241115  RH  035%=      5-min Rain = 0
KSP2 040708Z 27005KT 02/M12 A3002 RMK A01 T00241115  RH  035%=      5-min Rain = 0
KSP2 040709Z 27005KT 02/M12 A3002 RMK A01 T00241115  RH  035%=      5-min Rain = 0
KSP2 040710Z 26004KT 02/M12 A3002 RMK A01 T00241115  RH  035%=      5-min Rain = 0
KSP2 040711Z 27005KT 02/M12 A3002 RMK A01 T00231116  RH  035%=      5-min Rain = 0
KSP2 040712Z 27005KT 02/M12 A3002 RMK A01 T00221116  RH  035%=      5-min Rain = 0
KSP2 040713Z 27005KT 02/M12 A3002 RMK A01 T00221117  RH  035%=      5-min Rain = 0
KSP2 040714Z 26005KT 02/M12 A3002 RMK A01 T00221117  RH  035%=      5-min Rain = 0
KSP2 040715Z 26005KT 02/M12 A3002 RMK A01 T00221117  RH  035%=      5-min Rain = 0
KSP2 040716Z 26005KT 02/M12 A3002 RMK A01 T00211117  RH  035%=      5-min Rain = 0
KSP2 040717Z 26004KT 02/M12 A3002 RMK A01 T00201117  RH  035%=      5-min Rain = 0
KSP2 040718Z 26005KT 02/M12 A3002 RMK A01 T00201118  RH  035%=      5-min Rain = 0
KSP2 040719Z 25004KT 02/M12 A3002 RMK A01 T00201118  RH  035%=      5-min Rain = 0
KSP2 040720Z 25004KT 02/M12 A3002 RMK A01 T00211118  RH  035%=      5-min Rain = 0
KSP2 040721Z 25004KT 02/M12 A3002 RMK A01 T00201117  RH  035%=      5-min Rain = 0
KSP2 040722Z 24004KT 02/M12 A3002 RMK A01 T00201118  RH  035%=      5-min Rain = 0
KSP2 040723Z 24004KT 02/M12 A3002 RMK A01 T00191119  RH  035%=      5-min Rain = 0
KSP2 040724Z 24004KT 02/M12 A3002 RMK A01 T00181119  RH  035%=      5-min Rain = 0
KSP2 040725Z 21004KT 02/M12 A3002 RMK A01 T00161120  RH  036%=      5-min Rain = 0
KSP2 040726Z 20005KT 01/M12 A3002 RMK A01 T00131120  RH  036%=      5-min Rain = 0
KSP2 040727Z 22006KT 01/M12 A3002 RMK A01 T00111120  RH  037%=      5-min Rain = 0
KSP2 040728Z 23005KT 01/M12 A3002 RMK A01 T00111120  RH  037%=      5-min Rain = 0
KSP2 040729Z 22004KT 01/M12 A3002 RMK A01 T00131121  RH  036%=      5-min Rain = 0
KSP2 040730Z 21005KT 01/M12 A3003 RMK A01 T00131121  RH  036%=      5-min Rain = 0
KSP2 040731Z 17010KT 01/M12 A3003 RMK A01 T00111119  RH  037%=      5-min Rain = 0
KSP2 040732Z 19008KT 01/M12 A3003 RMK A01 T00091116  RH  039%=      5-min Rain = 0
KSP2 040733Z 21007KT 01/M11 A3003 RMK A01 T00121113  RH  039%=      5-min Rain = 0
KSP2 040734Z 21006KT 01/M11 A3003 RMK A01 T00141113  RH  038%=      5-min Rain = 0
KSP2 040735Z 21005KT 02/M11 A3003 RMK A01 T00161113  RH  038%=      5-min Rain = 0
KSP2 040736Z 21005KT 02/M11 A3003 RMK A01 T00171111  RH  038%=      5-min Rain = 0
KSP2 040737Z 21004KT 02/M11 A3002 RMK A01 T00181110  RH  038%=      5-min Rain = 0
KSP2 040738Z 17005KT 02/M11 A3003 RMK A01 T00191110  RH  038%=      5-min Rain = 0
KSP2 040739Z 20009KT 02/M11 A3003 RMK A01 T00211107  RH  038%=      5-min Rain = 0
KSP2 040740Z 22006KT 03/M11 A3002 RMK A01 T00251106  RH  037%=      5-min Rain = 0
KSP2 040741Z 23006KT 03/M11 A3002 RMK A01 T00301107  RH  036%=      5-min Rain = 0
KSP2 040742Z 23006KT 03/M11 A3002 RMK A01 T00311108  RH  035%=      5-min Rain = 0
KSP2 040743Z 22005KT 03/M11 A3002 RMK A01 T00331109  RH  035%=      5-min Rain = 0
KSP2 040744Z 20006KT 03/M11 A3003 RMK A01 T00341109  RH  034%=      5-min Rain = 0
KSP2 040745Z 21006KT 03/M11 A3003 RMK A01 T00341107  RH  035%=      5-min Rain = 0
KSP2 040746Z 21007KT 03/M11 A3003 RMK A01 T00311107  RH  035%=      5-min Rain = 0
KSP2 040747Z 18009KT 03/M11 A3003 RMK A01 T00301107  RH  036%=      5-min Rain = 0
KSP2 040748Z 18010KT 03/M11 A3003 RMK A01 T00301106  RH  036%=      5-min Rain = 0
KSP2 040749Z 22007KT 03/M11 A3003 RMK A01 T00331107  RH  035%=      5-min Rain = 0
KSP2 040750Z 23007KT 04/M11 A3002 RMK A01 T00371108  RH  034%=      5-min Rain = 0
KSP2 040751Z 23007KT 04/M11 A3002 RMK A01 T00381109  RH  033%=      5-min Rain = 0
KSP2 040752Z 22007KT 04/M11 A3002 RMK A01 T00381110  RH  033%=      5-min Rain = 0
KSP2 040753Z 18008KT 04/M11 A3003 RMK A01 T00371110  RH  033%=      5-min Rain = 0
KSP2 040754Z 16010KT 04/M11 A3003 RMK A01 T00361108  RH  034%=      5-min Rain = 0
KSP2 040755Z 18008KT 04/M11 A3003 RMK A01 T00361108  RH  034%=      5-min Rain = 0
KSP2 040756Z 21006KT 04/M11 A3003 RMK A01 T00361109  RH  034%=      5-min Rain = 0
KSP2 040757Z 21007KT 04/M11 A3003 RMK A01 T00361109  RH  034%=      5-min Rain = 0
KSP2 040758Z 20007KT 04/M11 A3003 RMK A01 T00361110  RH  034%=      5-min Rain = 0
KSP2 040759Z 20007KT 04/M11 A3003 RMK A01 T00361109  RH  034%=      5-min Rain = 0
KSP2 040800Z 20007KT 03/M11 A3003 RMK A01 T00341110  RH  034%=      5-min Rain = 0
KSP2 040801Z 21006KT 03/M11 A3003 RMK A01 T00321110  RH  034%=      5-min Rain = 0
KSP2 040802Z 22006KT 03/M11 A3003 RMK A01 T00301110  RH  035%=      5-min Rain = 0
KSP2 040803Z 22006KT 03/M11 A3003 RMK A01 T00301110  RH  035%=      5-min Rain = 0
KSP2 040804Z 22007KT 03/M11 A3003 RMK A01 T00301110  RH  035%=      5-min Rain = 0
KSP2 040805Z 24006KT 03/M11 A3003 RMK A01 T00321110  RH  034%=      5-min Rain = 0
KSP2 040806Z 24005KT 03/M11 A3003 RMK A01 T00331110  RH  034%=      5-min Rain = 0
KSP2 040807Z 26004KT 03/M11 A3002 RMK A01 T00311109  RH  035%=      5-min Rain = 0
KSP2 040808Z 26004KT 03/M11 A3002 RMK A01 T00291110  RH  035%=      5-min Rain = 0
KSP2 040809Z 25004KT 03/M11 A3002 RMK A01 T00271110  RH  035%=      5-min Rain = 0
KSP2 040810Z 25003KT 03/M11 A3002 RMK A01 T00271110  RH  036%=      5-min Rain = 0
KSP2 040811Z 25004KT 03/M11 A3002 RMK A01 T00261111  RH  036%=      5-min Rain = 0
KSP2 040812Z 24004KT 03/M11 A3002 RMK A01 T00281111  RH  035%=      5-min Rain = 0
KSP2 040813Z 23004KT 03/M11 A3002 RMK A01 T00291111  RH  035%=      5-min Rain = 0
KSP2 040814Z 23005KT 03/M11 A3003 RMK A01 T00291110  RH  035%=      5-min Rain = 0
KSP2 040815Z 23004KT 03/M11 A3003 RMK A01 T00261109  RH  036%=      5-min Rain = 0
KSP2 040816Z 23005KT 02/M11 A3003 RMK A01 T00221110  RH  037%=      5-min Rain = 0
KSP2 040817Z 25005KT 02/M11 A3002 RMK A01 T00201110  RH  038%=      5-min Rain = 0
KSP2 040818Z 25005KT 02/M11 A3002 RMK A01 T00201111  RH  037%=      5-min Rain = 0
KSP2 040819Z 27005KT 02/M11 A3003 RMK A01 T00211110  RH  037%=      5-min Rain = 0
KSP2 040820Z 25005KT 02/M11 A3003 RMK A01 T00211110  RH  037%=      5-min Rain = 0
KSP2 040821Z 24005KT 02/M11 A3003 RMK A01 T00211110  RH  037%=      5-min Rain = 0
KSP2 040822Z 25004KT 02/M11 A3002 RMK A01 T00221110  RH  037%=      5-min Rain = 0
KSP2 040823Z 26005KT 02/M11 A3003 RMK A01 T00221110  RH  037%=      5-min Rain = 0
KSP2 040824Z 24005KT 02/M11 A3003 RMK A01 T00231109  RH  037%=      5-min Rain = 0
KSP2 040825Z 25005KT 02/M11 A3002 RMK A01 T00231109  RH  037%=      5-min Rain = 0
KSP2 040826Z 26005KT 02/M11 A3003 RMK A01 T00221110  RH  037%=      5-min Rain = 0
KSP2 040827Z 25006KT 02/M11 A3003 RMK A01 T00211110  RH  037%=      5-min Rain = 0
KSP2 040828Z 24006KT 02/M11 A3002 RMK A01 T00201110  RH  038%=      5-min Rain = 0
KSP2 040829Z 25006KT 02/M11 A3003 RMK A01 T00211110  RH  037%=      5-min Rain = 0
KSP2 040830Z 25008KT 02/M11 A3003 RMK A01 T00231110  RH  037%=      5-min Rain = 0
KSP2 040831Z 25008KT 02/M11 A3003 RMK A01 T00231110  RH  037%=      5-min Rain = 0
KSP2 040832Z 27007KT 02/M11 A3003 RMK A01 T00231110  RH  037%=      5-min Rain = 0
KSP2 040833Z 25007KT 02/M11 A3003 RMK A01 T00221110  RH  037%=      5-min Rain = 0
KSP2 040834Z 26007KT 02/M11 A3003 RMK A01 T00231110  RH  037%=      5-min Rain = 0
KSP2 040835Z 27007KT 02/M11 A3003 RMK A01 T00241110  RH  037%=      5-min Rain = 0
KSP2 040836Z 26007KT 02/M11 A3003 RMK A01 T00231110  RH  037%=      5-min Rain = 0
KSP2 040837Z 26008KT 02/M11 A3002 RMK A01 T00221111  RH  037%=      5-min Rain = 0
KSP2 040838Z 26008KT 02/M11 A3002 RMK A01 T00221111  RH  037%=      5-min Rain = 0
KSP2 040839Z 25008KT 02/M11 A3002 RMK A01 T00211111  RH  037%=      5-min Rain = 0
KSP2 040840Z 25008KT 02/M11 A3002 RMK A01 T00211110  RH  037%=      5-min Rain = 0
KSP2 040841Z 25008KT 02/M11 A3002 RMK A01 T00211110  RH  037%=      5-min Rain = 0
KSP2 040842Z 24007KT 02/M11 A3002 RMK A01 T00211110  RH  037%=      5-min Rain = 0
KSP2 040843Z 24007KT 02/M11 A3002 RMK A01 T00221110  RH  037%=      5-min Rain = 0
KSP2 040844Z 24007KT 02/M11 A3002 RMK A01 T00231110  RH  037%=      5-min Rain = 0
KSP2 040845Z 24007KT 02/M11 A3002 RMK A01 T00241110  RH  036%=      5-min Rain = 0
KSP2 040846Z 24006KT 03/M11 A3002 RMK A01 T00251111  RH  036%=      5-min Rain = 0
KSP2 040847Z 24006KT 03/M11 A3002 RMK A01 T00251111  RH  036%=      5-min Rain = 0
KSP2 040848Z 24006KT 03/M11 A3002 RMK A01 T00251111  RH  036%=      5-min Rain = 0
KSP2 040849Z 24006KT 03/M11 A3002 RMK A01 T00251111  RH  036%=      5-min Rain = 0
KSP2 040850Z 24006KT 03/M11 A3002 RMK A01 T00251111  RH  036%=      5-min Rain = 0
KSP2 040851Z 24005KT 03/M11 A3001 RMK A01 T00251112  RH  036%=      5-min Rain = 0
KSP2 040852Z 23005KT 03/M11 A3001 RMK A01 T00261113  RH  035%=      5-min Rain = 0
KSP2 040853Z 24005KT 03/M11 A3001 RMK A01 T00271113  RH  035%=      5-min Rain = 0
KSP2 040854Z 24005KT 03/M11 A3001 RMK A01 T00271112  RH  035%=      5-min Rain = 0
KSP2 040855Z 24005KT 03/M11 A3001 RMK A01 T00271112  RH  035%=      5-min Rain = 0
KSP2 040856Z 24006KT 03/M11 A3001 RMK A01 T00261112  RH  035%=      5-min Rain = 0
KSP2 040857Z 24006KT 03/M11 A3001 RMK A01 T00261112  RH  036%=      5-min Rain = 0
KSP2 040858Z 24006KT 03/M11 A3001 RMK A01 T00261112  RH  035%=      5-min Rain = 0
KSP2 040859Z 24006KT 03/M11 A3001 RMK A01 T00261112  RH  035%=      5-min Rain = 0
KSP2 040900Z 24006KT 03/M11 A3001 RMK A01 T00261112  RH  035%=      5-min Rain = 0
KSP2 040901Z 25006KT 03/M11 A3001 RMK A01 T00261112  RH  035%=      5-min Rain = 0
KSP2 040902Z 25006KT 03/M11 A3001 RMK A01 T00261112  RH  036%=      5-min Rain = 0
KSP2 040903Z 25006KT 03/M11 A3001 RMK A01 T00261112  RH  035%=      5-min Rain = 0
KSP2 040904Z 25006KT 03/M11 A3001 RMK A01 T00281112  RH  035%=      5-min Rain = 0
KSP2 040905Z 25006KT 03/M11 A3001 RMK A01 T00281112  RH  035%=      5-min Rain = 0
KSP2 040906Z 24005KT 03/M11 A3001 RMK A01 T00281112  RH  035%=      5-min Rain = 0
KSP2 040907Z 24006KT 03/M11 A3001 RMK A01 T00271112  RH  035%=      5-min Rain = 0
KSP2 040908Z 25005KT 03/M11 A3001 RMK A01 T00261112  RH  036%=      5-min Rain = 0
KSP2 040909Z 25005KT 03/M11 A3001 RMK A01 T00251111  RH  036%=      5-min Rain = 0
KSP2 040910Z 26005KT 02/M11 A3001 RMK A01 T00241112  RH  036%=      5-min Rain = 0
KSP2 040911Z 26005KT 03/M11 A3001 RMK A01 T00251111  RH  036%=      5-min Rain = 0
KSP2 040912Z 26005KT 03/M11 A3001 RMK A01 T00251111  RH  036%=      5-min Rain = 0
KSP2 040913Z 26005KT 02/M11 A3001 RMK A01 T00241111  RH  036%=      5-min Rain = 0
KSP2 040914Z 26005KT 02/M11 A3001 RMK A01 T00241111  RH  036%=      5-min Rain = 0
KSP2 040915Z 27005KT 02/M11 A3001 RMK A01 T00231111  RH  036%=      5-min Rain = 0
KSP2 040916Z 27005KT 02/M11 A3001 RMK A01 T00211111  RH  037%=      5-min Rain = 0
KSP2 040917Z 27005KT 02/M11 A3001 RMK A01 T00201111  RH  037%=      5-min Rain = 0
KSP2 040918Z 27006KT 02/M11 A3001 RMK A01 T00181112  RH  038%=      5-min Rain = 0
KSP2 040919Z 27005KT 02/M11 A3001 RMK A01 T00151112  RH  038%=      5-min Rain = 0
KSP2 040920Z 27005KT 02/M11 A3001 RMK A01 T00151111  RH  039%=      5-min Rain = 0
KSP2 040921Z 27004KT 01/M11 A3001 RMK A01 T00141110  RH  039%=      5-min Rain = 0
KSP2 040922Z 27005KT 01/M11 A3001 RMK A01 T00131110  RH  039%=      5-min Rain = 0
KSP2 040923Z 26005KT 01/M11 A30 RMK A01 T00121110  RH  040%=      5-min Rain = 0
KSP2 040924Z 27005KT 01/M11 A30 RMK A01 T00121110  RH  040%=      5-min Rain = 0
KSP2 040925Z 26005KT 01/M11 A30 RMK A01 T00131108  RH  040%=      5-min Rain = 0
KSP2 040926Z 27005KT 01/M11 A30 RMK A01 T00141108  RH  040%=      5-min Rain = 0
KSP2 040927Z 27005KT 01/M11 A30 RMK A01 T00141109  RH  040%=      5-min Rain = 0
KSP2 040928Z 27004KT 02/M11 A30 RMK A01 T00151109  RH  039%=      5-min Rain = 0
KSP2 040929Z 26002KT 02/M11 A30 RMK A01 T00151109  RH  039%=      5-min Rain = 0
KSP2 040930Z 26002KT 02/M11 A30 RMK A01 T00161109  RH  039%=      5-min Rain = 0
KSP2 040931Z 27003KT 02/M11 A30 RMK A01 T00161108  RH  039%=      5-min Rain = 0
KSP2 040932Z 26003KT 02/M11 A30 RMK A01 T00171108  RH  039%=      5-min Rain = 0
KSP2 040933Z 27004KT 02/M11 A30 RMK A01 T00171108  RH  039%=      5-min Rain = 0
KSP2 040934Z 27005KT 02/M11 A30 RMK A01 T00171108  RH  039%=      5-min Rain = 0
KSP2 040935Z 27006KT 02/M11 A30 RMK A01 T00161107  RH  040%=      5-min Rain = 0
KSP2 040936Z 26007KT 02/M11 A30 RMK A01 T00151107  RH  040%=      5-min Rain = 0
KSP2 040937Z 26007KT 02/M11 A30 RMK A01 T00151105  RH  040%=      5-min Rain = 0
KSP2 040938Z 26007KT 02/M11 A30 RMK A01 T00151105  RH  041%=      5-min Rain = 0
KSP2 040939Z 26007KT 01/M10 A30 RMK A01 T00141104  RH  041%=      5-min Rain = 0
KSP2 040940Z 26007KT 01/M10 A30 RMK A01 T00141104  RH  041%=      5-min Rain = 0
KSP2 040941Z 26008KT 01/M10 A30 RMK A01 T00141104  RH  041%=      5-min Rain = 0
KSP2 040942Z 26008KT 01/M10 A30 RMK A01 T00141104  RH  041%=      5-min Rain = 0
KSP2 040943Z 25008KT 01/M10 A30 RMK A01 T00141104  RH  041%=      5-min Rain = 0
KSP2 040944Z 25008KT 02/M10 A30 RMK A01 T00151104  RH  041%=      5-min Rain = 0
KSP2 040945Z 25008KT 02/M10 A30 RMK A01 T00151103  RH  041%=      5-min Rain = 0
KSP2 040946Z 25008KT 02/M10 A30 RMK A01 T00151103  RH  041%=      5-min Rain = 0
KSP2 040947Z 26007KT 02/M10 A30 RMK A01 T00161103  RH  041%=      5-min Rain = 0
KSP2 040948Z 25007KT 02/M10 A3001 RMK A01 T00171103  RH  040%=      5-min Rain = 0
KSP2 040949Z 25007KT 02/M10 A3001 RMK A01 T00171103  RH  040%=      5-min Rain = 0
KSP2 040950Z 25007KT 02/M11 A3001 RMK A01 T00161105  RH  040%=      5-min Rain = 0
KSP2 040951Z 25007KT 02/M11 A3001 RMK A01 T00151106  RH  040%=      5-min Rain = 0
KSP2 040952Z 25006KT 02/M11 A3001 RMK A01 T00151107  RH  040%=      5-min Rain = 0
KSP2 040953Z 24007KT 02/M11 A3001 RMK A01 T00151107  RH  040%=      5-min Rain = 0
KSP2 040954Z 24007KT 01/M11 A30 RMK A01 T00141108  RH  040%=      5-min Rain = 0
KSP2 040955Z 24005KT 01/M11 A30 RMK A01 T00141108  RH  040%=      5-min Rain = 0
KSP2 040956Z 24005KT 01/M11 A30 RMK A01 T00131108  RH  040%=      5-min Rain = 0
KSP2 040957Z 24006KT 01/M11 A30 RMK A01 T00131108  RH  040%=      5-min Rain = 0
KSP2 040958Z 25006KT 01/M11 A3001 RMK A01 T00141109  RH  040%=      5-min Rain = 0
KSP2 040959Z 25005KT 01/M11 A30 RMK A01 T00141108  RH  040%=      5-min Rain = 0
KSP2 041000Z 25003KT 01/M11 A30 RMK A01 T00121108  RH  040%=      5-min Rain = 0
KSP2 041001Z 25003KT 01/M11 A30 RMK A01 T00111107  RH  041%=      5-min Rain = 0
KSP2 041002Z 25004KT 01/M11 A30 RMK A01 T00111107  RH  041%=      5-min Rain = 0
KSP2 041003Z 25004KT 01/M11 A30 RMK A01 T00111107  RH  041%=      5-min Rain = 0
KSP2 041004Z 25004KT 01/M11 A30 RMK A01 T00101107  RH  041%=      5-min Rain = 0
KSP2 041005Z 26004KT 01/M11 A30 RMK A01 T00101107  RH  041%=      5-min Rain = 0
KSP2 041006Z 26004KT 01/M11 A30 RMK A01 T00101106  RH  041%=      5-min Rain = 0
KSP2 041007Z 25004KT 01/M11 A30 RMK A01 T00101106  RH  042%=      5-min Rain = 0
KSP2 041008Z 25005KT 01/M11 A30 RMK A01 T00081106  RH  042%=      5-min Rain = 0
KSP2 041009Z 24005KT 01/M11 A30 RMK A01 T00081106  RH  042%=      5-min Rain = 0
KSP2 041010Z 23004KT 01/M11 A30 RMK A01 T00091105  RH  042%=      5-min Rain = 0
KSP2 041011Z 24004KT 01/M10 A30 RMK A01 T00091104  RH  043%=      5-min Rain = 0
KSP2 041012Z 24004KT 01/M10 A2999 RMK A01 T00101103  RH  042%=      5-min Rain = 0
KSP2 041013Z 25004KT 01/M10 A2999 RMK A01 T00111103  RH  042%=      5-min Rain = 0
KSP2 041014Z 25004KT 01/M10 A2999 RMK A01 T00111103  RH  042%=      5-min Rain = 0
KSP2 041015Z 25004KT 01/M10 A2999 RMK A01 T00111102  RH  043%=      5-min Rain = 0
KSP2 041016Z 24004KT 01/M10 A2999 RMK A01 T00111101  RH  043%=      5-min Rain = 0
KSP2 041017Z 25004KT 01/M10 A2999 RMK A01 T00121102  RH  042%=      5-min Rain = 0
KSP2 041018Z 27004KT 01/M10 A2999 RMK A01 T00141102  RH  042%=      5-min Rain = 0
KSP2 041019Z 27004KT 02/M10 A2999 RMK A01 T00161102  RH  041%=      5-min Rain = 0
KSP2 041020Z 27004KT 02/M10 A2999 RMK A01 T00161102  RH  041%=      5-min Rain = 0
KSP2 041021Z 25004KT 02/M10 A2999 RMK A01 T00171101  RH  041%=      5-min Rain = 0
KSP2 041022Z 25005KT 02/M10 A2999 RMK A01 T00191099  RH  041%=      5-min Rain = 0
KSP2 041023Z 25005KT 02/M10 A2999 RMK A01 T00211098  RH  041%=      5-min Rain = 0
KSP2 041024Z 27004KT 02/M10 A2999 RMK A01 T00231098  RH  040%=      5-min Rain = 0
KSP2 041025Z 25006KT 02/M10 A30 RMK A01 T00231098  RH  040%=      5-min Rain = 0
KSP2 041026Z 25006KT 02/M10 A30 RMK A01 T00241097  RH  040%=      5-min Rain = 0
KSP2 041027Z 25006KT 03/M10 A30 RMK A01 T00251096  RH  040%=      5-min Rain = 0
KSP2 041028Z 25006KT 03/M10 A30 RMK A01 T00251095  RH  041%=      5-min Rain = 0
KSP2 041029Z 25006KT 03/M09 A30 RMK A01 T00261094  RH  041%=      5-min Rain = 0
KSP2 041030Z 25007KT 03/M09 A30 RMK A01 T00261093  RH  041%=      5-min Rain = 0
KSP2 041031Z 27007KT 03/M09 A30 RMK A01 T00251093  RH  041%=      5-min Rain = 0
KSP2 041032Z 26008KT 03/M09 A30 RMK A01 T00251092  RH  042%=      5-min Rain = 0
KSP2 041033Z 26009KT 03/M09 A30 RMK A01 T00251090  RH  043%=      5-min Rain = 0
KSP2 041034Z 26008KT 03/M09 A30 RMK A01 T00271088  RH  043%=      5-min Rain = 0
KSP2 041035Z 27009KT 03/M09 A30 RMK A01 T00291088  RH  042%=      5-min Rain = 0
KSP2 041036Z 27010KT 03/M09 A3001 RMK A01 T00291088  RH  042%=      5-min Rain = 0
KSP2 041037Z 27011KT 03/M09 A3001 RMK A01 T00301087  RH  042%=      5-min Rain = 0
KSP2 041038Z 27011KT 03/M09 A3001 RMK A01 T00321085  RH  042%=      5-min Rain = 0
KSP2 041039Z 27010KT 03/M08 A30 RMK A01 T00331084  RH  042%=      5-min Rain = 0
KSP2 041040Z 27009KT 04/M08 A30 RMK A01 T00351083  RH  042%=      5-min Rain = 0
KSP2 041041Z 27009KT 04/M08 A30 RMK A01 T00361082  RH  042%=      5-min Rain = 0
KSP2 041042Z 27009KT 04/M08 A30 RMK A01 T00371081  RH  042%=      5-min Rain = 0
KSP2 041043Z 27009KT 04/M08 A3001 RMK A01 T00381081  RH  042%=      5-min Rain = 0
KSP2 041044Z 27010KT 04/M08 A3001 RMK A01 T00381080  RH  042%=      5-min Rain = 0
KSP2 041045Z 26008KT 04/M08 A3001 RMK A01 T00391080  RH  042%=      5-min Rain = 0
KSP2 041046Z 26007KT 04/M08 A30 RMK A01 T00391081  RH  041%=      5-min Rain = 0
KSP2 041047Z 26007KT 04/M08 A30 RMK A01 T00381081  RH  041%=      5-min Rain = 0
KSP2 041048Z 27008KT 04/M08 A3001 RMK A01 T00371082  RH  042%=      5-min Rain = 0
KSP2 041049Z 27008KT 04/M08 A30 RMK A01 T00351082  RH  042%=      5-min Rain = 0
KSP2 041050Z 26007KT 04/M08 A30 RMK A01 T00351083  RH  042%=      5-min Rain = 0
KSP2 041051Z 26007KT 03/M08 A30 RMK A01 T00341083  RH  042%=      5-min Rain = 0
KSP2 041052Z 26007KT 03/M08 A30 RMK A01 T00321084  RH  042%=      5-min Rain = 0
KSP2 041053Z 26008KT 03/M08 A30 RMK A01 T00301084  RH  043%=      5-min Rain = 0
KSP2 041054Z 26007KT 03/M09 A30 RMK A01 T00281085  RH  043%=      5-min Rain = 0
KSP2 041055Z 26006KT 03/M09 A30 RMK A01 T00271085  RH  044%=      5-min Rain = 0
KSP2 041056Z 25006KT 03/M09 A30 RMK A01 T00271085  RH  043%=      5-min Rain = 0
KSP2 041057Z 25007KT 03/M09 A30 RMK A01 T00281085  RH  043%=      5-min Rain = 0
KSP2 041058Z 25007KT 03/M09 A30 RMK A01 T00271086  RH  043%=      5-min Rain = 0
KSP2 041059Z 26007KT 03/M09 A30 RMK A01 T00251087  RH  043%=      5-min Rain = 0
KSP2 041100Z 26006KT 02/M09 A30 RMK A01 T00241087  RH  044%=      5-min Rain = 0
KSP2 041101Z 26004KT 02/M09 A30 RMK A01 T00231087  RH  044%=      5-min Rain = 0
KSP2 041102Z 25003KT 02/M09 A30 RMK A01 T00231088  RH  044%=      5-min Rain = 0
KSP2 041103Z 26003KT 02/M09 A30 RMK A01 T00231088  RH  044%=      5-min Rain = 0
KSP2 041104Z 26004KT 02/M09 A30 RMK A01 T00231087  RH  044%=      5-min Rain = 0
KSP2 041105Z 26004KT 02/M09 A30 RMK A01 T00231088  RH  044%=      5-min Rain = 0
KSP2 041106Z 24005KT 02/M09 A30 RMK A01 T00231088  RH  044%=      5-min Rain = 0
KSP2 041107Z 23004KT 02/M09 A30 RMK A01 T00231088  RH  044%=      5-min Rain = 0
KSP2 041108Z 23003KT 02/M09 A30 RMK A01 T00231086  RH  044%=      5-min Rain = 0
KSP2 041109Z 25004KT 02/M09 A30 RMK A01 T00221085  RH  045%=      5-min Rain = 0
KSP2 041110Z 26004KT 02/M09 A30 RMK A01 T00211087  RH  045%=      5-min Rain = 0
KSP2 041111Z 26003KT 02/M09 A30 RMK A01 T00211089  RH  044%=      5-min Rain = 0
KSP2 041112Z 27003KT 02/M09 A30 RMK A01 T00211089  RH  044%=      5-min Rain = 0
KSP2 041113Z 27002KT 02/M09 A30 RMK A01 T00201090  RH  044%=      5-min Rain = 0
KSP2 041114Z 28003KT 02/M09 A30 RMK A01 T00201090  RH  044%=      5-min Rain = 0
KSP2 041115Z 28004KT 02/M09 A3001 RMK A01 T00191089  RH  044%=      5-min Rain = 0
KSP2 041116Z 27004KT 02/M09 A3001 RMK A01 T00191089  RH  045%=      5-min Rain = 0
KSP2 041117Z 25003KT 02/M09 A30 RMK A01 T00171089  RH  045%=      5-min Rain = 0
KSP2 041118Z 26003KT 02/M09 A30 RMK A01 T00171088  RH  046%=      5-min Rain = 0
KSP2 041119Z 27003KT 02/M09 A30 RMK A01 T00171087  RH  046%=      5-min Rain = 0
KSP2 041120Z 29003KT 02/M09 A30 RMK A01 T00171087  RH  046%=      5-min Rain = 0
KSP2 041121Z 27004KT 02/M09 A30 RMK A01 T00171087  RH  046%=      5-min Rain = 0
KSP2 041122Z 26005KT 02/M09 A30 RMK A01 T00171087  RH  046%=      5-min Rain = 0
KSP2 041123Z 25005KT 02/M09 A3001 RMK A01 T00161086  RH  047%=      5-min Rain = 0
KSP2 041124Z 26005KT 02/M09 A3001 RMK A01 T00161085  RH  047%=      5-min Rain = 0
KSP2 041125Z 27006KT 02/M08 A3001 RMK A01 T00161084  RH  048%=      5-min Rain = 0
KSP2 041126Z 26008KT 02/M08 A3001 RMK A01 T00161083  RH  048%=      5-min Rain = 0
KSP2 041127Z 25008KT 02/M08 A3001 RMK A01 T00181082  RH  048%=      5-min Rain = 0
KSP2 041128Z 25008KT 02/M08 A3001 RMK A01 T00211081  RH  047%=      5-min Rain = 0
KSP2 041129Z 25007KT 02/M08 A3001 RMK A01 T00221081  RH  046%=      5-min Rain = 0
KSP2 041130Z 26008KT 02/M08 A3001 RMK A01 T00221082  RH  046%=      5-min Rain = 0
KSP2 041131Z 26008KT 02/M08 A3001 RMK A01 T00211082  RH  046%=      5-min Rain = 0
KSP2 041132Z 25008KT 02/M08 A3001 RMK A01 T00211082  RH  046%=      5-min Rain = 0
KSP2 041133Z 25008KT 02/M08 A3001 RMK A01 T00211083  RH  046%=      5-min Rain = 0
KSP2 041134Z 25008KT 02/M08 A3001 RMK A01 T00211083  RH  046%=      5-min Rain = 0
KSP2 041135Z 26008KT 02/M08 A3001 RMK A01 T00201083  RH  046%=      5-min Rain = 0
KSP2 041136Z 27008KT 02/M08 A3001 RMK A01 T00201082  RH  047%=      5-min Rain = 0
KSP2 041137Z 26008KT 02/M08 A3001 RMK A01 T00201082  RH  047%=      5-min Rain = 0
KSP2 041138Z 26007KT 02/M08 A3001 RMK A01 T00201083  RH  046%=      5-min Rain = 0
KSP2 041139Z 25007KT 02/M08 A3001 RMK A01 T00211083  RH  046%=      5-min Rain = 0
KSP2 041140Z 26007KT 02/M08 A3001 RMK A01 T00211083  RH  046%=      5-min Rain = 0
KSP2 041141Z 26007KT 02/M08 A3001 RMK A01 T00221083  RH  046%=      5-min Rain = 0
KSP2 041142Z 26006KT 02/M08 A3001 RMK A01 T00221083  RH  046%=      5-min Rain = 0
KSP2 041143Z 26005KT 02/M08 A30 RMK A01 T00211083  RH  046%=      5-min Rain = 0
KSP2 041144Z 24006KT 02/M08 A30 RMK A01 T00221083  RH  046%=      5-min Rain = 0
KSP2 041145Z 24007KT 02/M08 A30 RMK A01 T00221082  RH  046%=      5-min Rain = 0
KSP2 041146Z 24007KT 02/M08 A30 RMK A01 T00231082  RH  046%=      5-min Rain = 0
KSP2 041147Z 24007KT 03/M08 A30 RMK A01 T00261081  RH  045%=      5-min Rain = 0
KSP2 041148Z 24006KT 03/M08 A30 RMK A01 T00261081  RH  045%=      5-min Rain = 0
KSP2 041149Z 24006KT 03/M08 A30 RMK A01 T00261081  RH  045%=      5-min Rain = 0
KSP2 041150Z 24007KT 03/M08 A30 RMK A01 T00251080  RH  046%=      5-min Rain = 0
KSP2 041151Z 24006KT 03/M08 A30 RMK A01 T00261079  RH  046%=      5-min Rain = 0
KSP2 041152Z 24006KT 03/M08 A30 RMK A01 T00281078  RH  046%=      5-min Rain = 0
KSP2 041153Z 24006KT 03/M08 A30 RMK A01 T00291078  RH  045%=      5-min Rain = 0
KSP2 041154Z 24006KT 03/M08 A30 RMK A01 T00311078  RH  045%=      5-min Rain = 0
KSP2 041155Z 24006KT 03/M08 A30 RMK A01 T00331077  RH  044%=      5-min Rain = 0
KSP2 041156Z 24005KT 03/M08 A30 RMK A01 T00341077  RH  044%=      5-min Rain = 0
KSP2 041157Z 24005KT 04/M08 A30 RMK A01 T00351077  RH  044%=      5-min Rain = 0
KSP2 041158Z 24006KT 04/M08 A30 RMK A01 T00361076  RH  044%=      5-min Rain = 0
KSP2 041159Z 24006KT 04/M08 A30 RMK A01 T00381076  RH  043%=      5-min Rain = 0
KSP2 041200Z 25006KT 04/M08 A30 RMK A01 T00391076  RH  043%=      5-min Rain = 0
KSP2 041201Z 25006KT 04/M08 A30 RMK A01 T00401076  RH  043%=      5-min Rain = 0
KSP2 041202Z 24006KT 04/M08 A30 RMK A01 T00411076  RH  042%=      5-min Rain = 0
KSP2 041203Z 23007KT 04/M08 A30 RMK A01 T00411077  RH  042%=      5-min Rain = 0
KSP2 041204Z 23007KT 04/M08 A30 RMK A01 T00421077  RH  042%=      5-min Rain = 0
KSP2 041205Z 23007KT 04/M08 A30 RMK A01 T00431077  RH  041%=      5-min Rain = 0
KSP2 041206Z 22007KT 05/M08 A30 RMK A01 T00451077  RH  041%=      5-min Rain = 0
KSP2 041207Z 22006KT 05/M08 A30 RMK A01 T00471076  RH  041%=      5-min Rain = 0
KSP2 041208Z 22005KT 05/M08 A30 RMK A01 T00481075  RH  041%=      5-min Rain = 0
KSP2 041209Z 22004KT 05/M07 A30 RMK A01 T00481074  RH  041%=      5-min Rain = 0
KSP2 041210Z 22004KT 05/M07 A30 RMK A01 T00481073  RH  041%=      5-min Rain = 0
KSP2 041211Z 21003KT 05/M07 A30 RMK A01 T00481072  RH  041%=      5-min Rain = 0
KSP2 041212Z 21003KT 05/M07 A30 RMK A01 T00471071  RH  042%=      5-min Rain = 0
KSP2 041213Z 22003KT 05/M07 A30 RMK A01 T00471069  RH  043%=      5-min Rain = 0
KSP2 041214Z 23003KT 05/M07 A30 RMK A01 T00461069  RH  043%=      5-min Rain = 0
KSP2 041215Z 24003KT 05/M07 A30 RMK A01 T00461070  RH  043%=      5-min Rain = 0
KSP2 041216Z 23004KT 05/M07 A30 RMK A01 T00461071  RH  042%=      5-min Rain = 0
KSP2 041217Z 23005KT 05/M07 A30 RMK A01 T00461070  RH  043%=      5-min Rain = 0
KSP2 041218Z 22007KT 05/M07 A30 RMK A01 T00471068  RH  043%=      5-min Rain = 0
KSP2 041219Z 22008KT 05/M07 A30 RMK A01 T00491066  RH  043%=      5-min Rain = 0
KSP2 041220Z 22007KT 05/M07 A30 RMK A01 T00501065  RH  043%=      5-min Rain = 0
KSP2 041221Z 22007KT 05/M06 A30 RMK A01 T00521063  RH  043%=      5-min Rain = 0
KSP2 041222Z 22006KT 05/M06 A30 RMK A01 T00531063  RH  043%=      5-min Rain = 0
KSP2 041223Z 22006KT 05/M06 A30 RMK A01 T00531062  RH  043%=      5-min Rain = 0
KSP2 041224Z 22005KT 05/M06 A30 RMK A01 T00531062  RH  043%=      5-min Rain = 0
KSP2 041225Z 22006KT 05/M06 A30 RMK A01 T00531061  RH  043%=      5-min Rain = 0
KSP2 041226Z 23006KT 05/M06 A30 RMK A01 T00531061  RH  043%=      5-min Rain = 0
KSP2 041227Z 22007KT 06/M06 A30 RMK A01 T00551060  RH  043%=      5-min Rain = 0
KSP2 041228Z 23007KT 06/M06 A30 RMK A01 T00561058  RH  043%=      5-min Rain = 0
KSP2 041229Z 23007KT 06/M06 A30 RMK A01 T00581057  RH  043%=      5-min Rain = 0
KSP2 041230Z 23008KT 06/M06 A30 RMK A01 T00601056  RH  043%=      5-min Rain = 0
KSP2 041231Z 23008KT 06/M05 A30 RMK A01 T00621054  RH  043%=      5-min Rain = 0
KSP2 041232Z 23007KT 07/M05 A30 RMK A01 T00651052  RH  043%=      5-min Rain = 0
KSP2 041233Z 23006KT 07/M05 A30 RMK A01 T00681051  RH  042%=      5-min Rain = 0
KSP2 041234Z 22006KT 07/M05 A30 RMK A01 T00701051  RH  042%=      5-min Rain = 0
KSP2 041235Z 23006KT 07/M05 A30 RMK A01 T00711051  RH  042%=      5-min Rain = 0
KSP2 041236Z 23006KT 07/M05 A30 RMK A01 T00711051  RH  041%=      5-min Rain = 0
KSP2 041237Z 23005KT 07/M05 A30 RMK A01 T00711051  RH  041%=      5-min Rain = 0
KSP2 041238Z 24005KT 07/M05 A30 RMK A01 T00711052  RH  041%=      5-min Rain = 0
KSP2 041239Z 24004KT 07/M05 A30 RMK A01 T00711051  RH  042%=      5-min Rain = 0
KSP2 041240Z 24003KT 07/M05 A30 RMK A01 T00711050  RH  042%=      5-min Rain = 0
KSP2 041241Z 23003KT 07/M05 A3001 RMK A01 T00721050  RH  042%=      5-min Rain = 0
KSP2 041242Z 24004KT 07/M05 A3001 RMK A01 T00721050  RH  042%=      5-min Rain = 0
KSP2 041243Z 23005KT 07/M05 A3001 RMK A01 T00721050  RH  042%=      5-min Rain = 0
KSP2 041244Z 22004KT 07/M05 A3001 RMK A01 T00711050  RH  042%=      5-min Rain = 0
KSP2 041245Z 21004KT 07/M05 A30 RMK A01 T00711049  RH  042%=      5-min Rain = 0
KSP2 041246Z 19005KT 07/M04 A30 RMK A01 T00711044  RH  044%=      5-min Rain = 0
KSP2 041247Z 18005KT 08/M03 A2999 RMK A01 T00761034  RH  046%=      5-min Rain = 0
KSP2 041248Z 18005KT 08/M03 A2999 RMK A01 T00811030  RH  046%=      5-min Rain = 0
KSP2 041249Z 18005KT 09/M03 A2999 RMK A01 T00861030  RH  044%=      5-min Rain = 0
KSP2 041250Z 19006KT 09/M03 A2999 RMK A01 T00881032  RH  043%=      5-min Rain = 0
KSP2 041251Z 20006KT 09/M03 A2999 RMK A01 T00881034  RH  042%=      5-min Rain = 0
KSP2 041252Z 20006KT 09/M04 A2999 RMK A01 T00871038  RH  041%=      5-min Rain = 0
KSP2 041253Z 20006KT 08/M04 A2999 RMK A01 T00841039  RH  042%=      5-min Rain = 0
KSP2 041254Z 19007KT 08/M04 A2999 RMK A01 T00841037  RH  042%=      5-min Rain = 0
KSP2 041255Z 18007KT 08/M04 A2999 RMK A01 T00841036  RH  043%=      5-min Rain = 0
KSP2 041256Z 18007KT 08/M04 A2999 RMK A01 T00831036  RH  043%=      5-min Rain = 0
KSP2 041257Z 18007KT 08/M04 A2999 RMK A01 T00821035  RH  044%=      5-min Rain = 0
KSP2 041258Z 18008KT 08/M03 A2999 RMK A01 T00811033  RH  044%=      5-min Rain = 0
KSP2 041259Z 19008KT 08/M03 A2999 RMK A01 T00811032  RH  045%=      5-min Rain = 0
KSP2 041300Z 19008KT 08/M03 A2999 RMK A01 T00811031  RH  045%=      5-min Rain = 0
KSP2 041301Z 19008KT 08/M03 A30 RMK A01 T00801031  RH  045%=      5-min Rain = 0
KSP2 041302Z 19009KT 08/M03 A30 RMK A01 T00791030  RH  046%=      5-min Rain = 0
KSP2 041303Z 19008KT 08/M03 A30 RMK A01 T00791030  RH  046%=      5-min Rain = 0
KSP2 041304Z 18008KT 08/M03 A30 RMK A01 T00791029  RH  046%=      5-min Rain = 0
KSP2 041305Z 19007KT 08/M03 A2999 RMK A01 T00781030  RH  046%=      5-min Rain = 0
KSP2 041306Z 19007KT 08/M03 A2999 RMK A01 T00781032  RH  046%=      5-min Rain = 0
KSP2 041307Z 18007KT 08/M03 A2999 RMK A01 T00771032  RH  046%=      5-min Rain = 0
KSP2 041308Z 18007KT 08/M03 A2999 RMK A01 T00761033  RH  046%=      5-min Rain = 0
KSP2 041309Z 18007KT 08/M03 A2999 RMK A01 T00751034  RH  046%=      5-min Rain = 0
KSP2 041310Z 19006KT 07/M03 A2999 RMK A01 T00731034  RH  046%=      5-min Rain = 0
KSP2 041311Z 19007KT 07/M03 A2999 RMK A01 T00721034  RH  047%=      5-min Rain = 0
KSP2 041312Z 19007KT 07/M03 A2999 RMK A01 T00701034  RH  047%=      5-min Rain = 0
KSP2 041313Z 18008KT 07/M03 A2999 RMK A01 T00691034  RH  048%=      5-min Rain = 0
KSP2 041314Z 18008KT 07/M03 A2999 RMK A01 T00671033  RH  049%=      5-min Rain = 0
KSP2 041315Z 18008KT 07/M03 A2999 RMK A01 T00651032  RH  050%=      5-min Rain = 0
KSP2 041316Z 18007KT 06/M03 A2999 RMK A01 T00641030  RH  051%=      5-min Rain = 0
KSP2 041317Z 19007KT 06/M03 A2998 RMK A01 T00631030  RH  051%=      5-min Rain = 0
KSP2 041318Z 19006KT 06/M03 A2998 RMK A01 T00631029  RH  052%=      5-min Rain = 0
KSP2 041319Z 19006KT 06/M03 A2998 RMK A01 T00631030  RH  052%=      5-min Rain = 0
KSP2 041320Z 19007KT 06/M03 A2998 RMK A01 T00631029  RH  052%=      5-min Rain = 0
KSP2 041321Z 19007KT 06/M03 A2998 RMK A01 T00631029  RH  052%=      5-min Rain = 0
KSP2 041322Z 20007KT 06/M03 A2999 RMK A01 T00631029  RH  052%=      5-min Rain = 0
KSP2 041323Z 20008KT 06/M03 A2999 RMK A01 T00631029  RH  052%=      5-min Rain = 0
KSP2 041324Z 21008KT 06/M03 A2999 RMK A01 T00631028  RH  052%=      5-min Rain = 0
KSP2 041325Z 21007KT 06/M03 A2999 RMK A01 T00641028  RH  052%=      5-min Rain = 0
KSP2 041326Z 20008KT 06/M03 A2999 RMK A01 T00641028  RH  052%=      5-min Rain = 0
KSP2 041327Z 21008KT 07/M03 A30 RMK A01 T00651028  RH  051%=      5-min Rain = 0
KSP2 041328Z 21008KT 07/M03 A30 RMK A01 T00651028  RH  051%=      5-min Rain = 0
KSP2 041329Z 22007KT 07/M03 A30 RMK A01 T00661028  RH  051%=      5-min Rain = 0
KSP2 041330Z 21008KT 07/M03 A30 RMK A01 T00661028  RH  051%=      5-min Rain = 0
KSP2 041331Z 21008KT 07/M03 A30 RMK A01 T00661028  RH  051%=      5-min Rain = 0
KSP2 041332Z 21007KT 07/M03 A30 RMK A01 T00671028  RH  051%=      5-min Rain = 0
KSP2 041333Z 21006KT 07/M03 A30 RMK A01 T00671028  RH  051%=      5-min Rain = 0
KSP2 041334Z 22005KT 07/M03 A30 RMK A01 T00671028  RH  051%=      5-min Rain = 0
KSP2 041335Z 24005KT 07/M03 A30 RMK A01 T00671028  RH  051%=      5-min Rain = 0
KSP2 041336Z 27006KT 07/M03 A30 RMK A01 T00671028  RH  051%=      5-min Rain = 0
KSP2 041337Z 27007KT 07/M03 A30 RMK A01 T00671026  RH  051%=      5-min Rain = 0
KSP2 041338Z 28007KT 07/M03 A30 RMK A01 T00671025  RH  052%=      5-min Rain = 0
KSP2 041339Z 29006KT 07/M02 A30 RMK A01 T00661024  RH  052%=      5-min Rain = 0
KSP2 041340Z 28005KT 07/M02 A30 RMK A01 T00661023  RH  053%=      5-min Rain = 0
KSP2 041341Z 27005KT 07/M02 A30 RMK A01 T00661023  RH  053%=      5-min Rain = 0
KSP2 041342Z 27004KT 07/M02 A30 RMK A01 T00661023  RH  053%=      5-min Rain = 0
KSP2 041343Z 27004KT 07/M02 A30 RMK A01 T00661023  RH  053%=      5-min Rain = 0
KSP2 041344Z 27004KT 07/M02 A30 RMK A01 T00661023  RH  053%=      5-min Rain = 0
KSP2 041345Z 26004KT 07/M02 A30 RMK A01 T00671023  RH  053%=      5-min Rain = 0
KSP2 041346Z 26004KT 07/M02 A30 RMK A01 T00681022  RH  053%=      5-min Rain = 0
KSP2 041347Z 24004KT 07/M02 A30 RMK A01 T00681021  RH  053%=      5-min Rain = 0
KSP2 041348Z 22003KT 07/M02 A30 RMK A01 T00701020  RH  053%=      5-min Rain = 0
KSP2 041349Z 21004KT 07/M02 A2999 RMK A01 T00711019  RH  053%=      5-min Rain = 0
KSP2 041350Z 20004KT 07/M02 A2999 RMK A01 T00711019  RH  053%=      5-min Rain = 0
KSP2 041351Z 19004KT 07/M02 A2999 RMK A01 T00721017  RH  053%=      5-min Rain = 0
KSP2 041352Z 19005KT 07/M02 A2999 RMK A01 T00731016  RH  053%=      5-min Rain = 0
KSP2 041353Z 20005KT 07/M02 A2999 RMK A01 T00741015  RH  053%=      5-min Rain = 0
KSP2 041354Z 20005KT 08/M02 A2999 RMK A01 T00751015  RH  053%=      5-min Rain = 0
KSP2 041355Z 20005KT 08/M01 A2999 RMK A01 T00781014  RH  052%=      5-min Rain = 0
KSP2 041356Z 21005KT 08/M01 A2999 RMK A01 T00791013  RH  052%=      5-min Rain = 0
KSP2 041357Z 22005KT 08/M01 A2999 RMK A01 T00811013  RH  052%=      5-min Rain = 0
KSP2 041358Z 23004KT 08/M01 A30 RMK A01 T00811014  RH  051%=      5-min Rain = 0
KSP2 041359Z 25006KT 08/M01 A30 RMK A01 T00821014  RH  051%=      5-min Rain = 0
KSP2 041400Z 25008KT 09/M02 A30 RMK A01 T00851015  RH  050%=      5-min Rain = 0
KSP2 041401Z 25009KT 09/M02 A3001 RMK A01 T00871016  RH  048%=      5-min Rain = 0
KSP2 041402Z 24008KT 09/M02 A3001 RMK A01 T00891018  RH  047%=      5-min Rain = 0
KSP2 041403Z 25009KT 09/M02 A3001 RMK A01 T00901018  RH  047%=      5-min Rain = 0
KSP2 041404Z 25008KT 09/M02 A3001 RMK A01 T00911018  RH  046%=      5-min Rain = 0
KSP2 041405Z 26006KT 09/M02 A3001 RMK A01 T00911018  RH  046%=      5-min Rain = 0
KSP2 041406Z 25005KT 09/M02 A3001 RMK A01 T00921017  RH  046%=      5-min Rain = 0
KSP2 041407Z 24004KT 09/M02 A30 RMK A01 T00921018  RH  046%=      5-min Rain = 0
KSP2 041408Z 23004KT 09/M02 A30 RMK A01 T00921018  RH  046%=      5-min Rain = 0
KSP2 041409Z 22004KT 09/M02 A30 RMK A01 T00921018  RH  046%=      5-min Rain = 0
KSP2 041410Z 21004KT 09/M02 A30 RMK A01 T00921018  RH  046%=      5-min Rain = 0
KSP2 041411Z 21004KT 09/M02 A30 RMK A01 T00921018  RH  046%=      5-min Rain = 0
KSP2 041412Z 21004KT 09/M02 A30 RMK A01 T00921016  RH  047%=      5-min Rain = 0
KSP2 041413Z 20004KT 09/M02 A30 RMK A01 T00921016  RH  047%=      5-min Rain = 0
KSP2 041414Z 20003KT 09/M02 A30 RMK A01 T00921015  RH  047%=      5-min Rain = 0
KSP2 041415Z 20003KT 09/M01 A2999 RMK A01 T00921013  RH  048%=      5-min Rain = 0
KSP2 041416Z 18003KT 09/M01 A2999 RMK A01 T00921013  RH  048%=      5-min Rain = 0
KSP2 041417Z 18003KT 09/M01 A2999 RMK A01 T00931011  RH  048%=      5-min Rain = 0
KSP2 041418Z 18004KT 09/M01 A2999 RMK A01 T00931010  RH  049%=      5-min Rain = 0
KSP2 041419Z 19004KT 09/M01 A2999 RMK A01 T00941009  RH  048%=      5-min Rain = 0
KSP2 041420Z 19004KT 10/M01 A2999 RMK A01 T00951009  RH  048%=      5-min Rain = 0
KSP2 041421Z 19004KT 10/M01 A2999 RMK A01 T00961010  RH  048%=      5-min Rain = 0
KSP2 041422Z 20004KT 10/M01 A2999 RMK A01 T00971009  RH  048%=      5-min Rain = 0
KSP2 041423Z 19004KT 10/M01 A2999 RMK A01 T00971009  RH  048%=      5-min Rain = 0
KSP2 041424Z 20004KT 10/M01 A2999 RMK A01 T00981008  RH  048%=      5-min Rain = 0
KSP2 041425Z 19007KT 10/M01 A2999 RMK A01 T00981008  RH  048%=      5-min Rain = 0
KSP2 041426Z 20005KT 10/M01 A2999 RMK A01 T01001007  RH  047%=      5-min Rain = 0
KSP2 041427Z 20004KT 10/M01 A2999 RMK A01 T01011006  RH  047%=      5-min Rain = 0
KSP2 041428Z 20005KT 10/M01 A2999 RMK A01 T01031006  RH  047%=      5-min Rain = 0
KSP2 041429Z 19006KT 10/M01 A2999 RMK A01 T01041008  RH  046%=      5-min Rain = 0
KSP2 041430Z 18006KT 11/M01 A2999 RMK A01 T01051007  RH  046%=      5-min Rain = 0
KSP2 041431Z 18006KT 11/M01 A2999 RMK A01 T01051007  RH  046%=      5-min Rain = 0
KSP2 041432Z 18006KT 11/M01 A2999 RMK A01 T01051007  RH  046%=      5-min Rain = 0
KSP2 041433Z 17006KT 10/M01 A2999 RMK A01 T01041007  RH  046%=      5-min Rain = 0
KSP2 041434Z 17006KT 10/M01 A2999 RMK A01 T01031006  RH  047%=      5-min Rain = 0
KSP2 041435Z 17006KT 10/M01 A2999 RMK A01 T01041005  RH  047%=      5-min Rain = 0
KSP2 041436Z 17006KT 10/M01 A2999 RMK A01 T01031005  RH  047%=      5-min Rain = 0
KSP2 041437Z 18006KT 10/M01 A2999 RMK A01 T01031005  RH  047%=      5-min Rain = 0
KSP2 041438Z 17006KT 10/M00 A2999 RMK A01 T01041004  RH  047%=      5-min Rain = 0
KSP2 041439Z 17006KT 10/M00 A2999 RMK A01 T01041003  RH  047%=      5-min Rain = 0
KSP2 041440Z 17006KT 10/M00 A2999 RMK A01 T01031002  RH  048%=      5-min Rain = 0
KSP2 041441Z 17006KT 10/M00 A2999 RMK A01 T01041002  RH  048%=      5-min Rain = 0
KSP2 041442Z 17006KT 10/M00 A2998 RMK A01 T01031001  RH  048%=      5-min Rain = 0
KSP2 041443Z 16005KT 10/M00 A2998 RMK A01 T01041001  RH  048%=      5-min Rain = 0
KSP2 041444Z 16005KT 10/00 A2998 RMK A01 T010400-0  RH  048%=      5-min Rain = 0
KSP2 041445Z 16005KT 11/00 A2998 RMK A01 T01050001  RH  049%=      5-min Rain = 0
KSP2 041446Z 16005KT 11/00 A2998 RMK A01 T01050001  RH  049%=      5-min Rain = 0
KSP2 041447Z 17005KT 11/00 A2998 RMK A01 T01050001  RH  049%=      5-min Rain = 0
KSP2 041448Z 19006KT 11/00 A2998 RMK A01 T01050002  RH  049%=      5-min Rain = 0
KSP2 041449Z 19006KT 11/00 A2999 RMK A01 T01050002  RH  049%=      5-min Rain = 0
KSP2 041450Z 19006KT 11/00 A2999 RMK A01 T01050002  RH  049%=      5-min Rain = 0
KSP2 041451Z 21007KT 11/00 A2999 RMK A01 T01060004  RH  049%=      5-min Rain = 0
KSP2 041452Z 21007KT 11/01 A2999 RMK A01 T01090006  RH  049%=      5-min Rain = 0
KSP2 041453Z 22006KT 11/01 A30 RMK A01 T01120008  RH  049%=      5-min Rain = 0
KSP2 041454Z 22005KT 12/01 A30 RMK A01 T01150009  RH  048%=      5-min Rain = 0
KSP2 041455Z 21007KT 12/01 A30 RMK A01 T01170008  RH  047%=      5-min Rain = 0
KSP2 041456Z 21007KT 12/01 A30 RMK A01 T01200008  RH  046%=      5-min Rain = 0
KSP2 041457Z 21006KT 12/01 A30 RMK A01 T01220008  RH  045%=      5-min Rain = 0
KSP2 041458Z 21009KT 12/01 A30 RMK A01 T01240007  RH  045%=      5-min Rain = 0
KSP2 041459Z 20007KT 13/01 A30 RMK A01 T01250005  RH  044%=      5-min Rain = 0
KSP2 041500Z 20008KT 12/01 A2999 RMK A01 T01240006  RH  044%=      5-min Rain = 0
KSP2 041501Z 21006KT 12/01 A2999 RMK A01 T01240006  RH  044%=      5-min Rain = 0
KSP2 041502Z 21007KT 13/01 A30 RMK A01 T01250006  RH  044%=      5-min Rain = 0
KSP2 041503Z 21008KT 13/01 A30 RMK A01 T01260005  RH  043%=      5-min Rain = 0
KSP2 041504Z 20009KT 13/00 A30 RMK A01 T01260003  RH  043%=      5-min Rain = 0
KSP2 041505Z 20007KT 13/00 A30 RMK A01 T01260003  RH  043%=      5-min Rain = 0
KSP2 041506Z 19008KT 13/00 A2999 RMK A01 T01260004  RH  043%=      5-min Rain = 0
KSP2 041507Z 19008KT 13/00 A2999 RMK A01 T01260004  RH  043%=      5-min Rain = 0
KSP2 041508Z 19007KT 13/01 A2999 RMK A01 T01260005  RH  043%=      5-min Rain = 0
KSP2 041509Z 19006KT 13/01 A2999 RMK A01 T01260005  RH  043%=      5-min Rain = 0
KSP2 041510Z 20006KT 13/01 A2999 RMK A01 T01270006  RH  043%=      5-min Rain = 0
KSP2 041511Z 20006KT 13/01 A2999 RMK A01 T01270006  RH  043%=      5-min Rain = 0
KSP2 041512Z 20006KT 13/01 A2999 RMK A01 T01280007  RH  044%=      5-min Rain = 0
KSP2 041513Z 20007KT 13/01 A2999 RMK A01 T01280008  RH  044%=      5-min Rain = 0
KSP2 041514Z 20007KT 13/01 A2999 RMK A01 T01290009  RH  044%=      5-min Rain = 0
KSP2 041515Z 20008KT 13/01 A2999 RMK A01 T01300009  RH  044%=      5-min Rain = 0
KSP2 041516Z 20008KT 13/01 A30 RMK A01 T01310010  RH  044%=      5-min Rain = 0
KSP2 041517Z 20009KT 13/01 A30 RMK A01 T01320011  RH  044%=      5-min Rain = 0
KSP2 041518Z 20008KT 13/01 A2999 RMK A01 T01340012  RH  043%=      5-min Rain = 0
KSP2 041519Z 20009KT 14/01 A2999 RMK A01 T01360011  RH  043%=      5-min Rain = 0
KSP2 041520Z 20008KT 14/01 A2999 RMK A01 T01380011  RH  042%=      5-min Rain = 0
KSP2 041521Z 20008KT 14/01 A2999 RMK A01 T01380010  RH  041%=      5-min Rain = 0
KSP2 041522Z 21008KT 14/01 A2999 RMK A01 T01380010  RH  042%=      5-min Rain = 0
KSP2 041523Z 20009KT 14/01 A2999 RMK A01 T01380010  RH  042%=      5-min Rain = 0
KSP2 041524Z 20011KT 14/01 A2999 RMK A01 T01390010  RH  042%=      5-min Rain = 0
KSP2 041525Z 20010KT 14/01 A2999 RMK A01 T01390011  RH  042%=      5-min Rain = 0
KSP2 041526Z 20009KT 14/01 A2999 RMK A01 T01400011  RH  042%=      5-min Rain = 0
KSP2 041527Z 20008KT 14/01 A2999 RMK A01 T01400012  RH  042%=      5-min Rain = 0
KSP2 041528Z 20010KT 14/01 A2999 RMK A01 T01410011  RH  041%=      5-min Rain = 0
KSP2 041529Z 20007KT 14/01 A2998 RMK A01 T01410011  RH  041%=      5-min Rain = 0
KSP2 041530Z 19007KT 14/01 A2998 RMK A01 T01420012  RH  041%=      5-min Rain = 0
KSP2 041531Z 20007KT 14/01 A2998 RMK A01 T01420012  RH  041%=      5-min Rain = 0
KSP2 041532Z 20008KT 14/01 A2998 RMK A01 T01440011  RH  040%=      5-min Rain = 0
KSP2 041533Z 20009KT 15/01 A2998 RMK A01 T01460012  RH  040%=      5-min Rain = 0
KSP2 041534Z 20009KT 15/01 A2998 RMK A01 T01510014  RH  039%=      5-min Rain = 0
KSP2 041535Z 20010KT 16/01 A2998 RMK A01 T01560013  RH  038%=      5-min Rain = 0
KSP2 041536Z 19010KT 16/01 A2998 RMK A01 T01580014  RH  038%=      5-min Rain = 0
KSP2 041537Z 20009KT 16/01 A2998 RMK A01 T01590013  RH  037%=      5-min Rain = 0
KSP2 041538Z 19008KT 16/02 A2998 RMK A01 T01610015  RH  037%=      5-min Rain = 0
KSP2 041539Z 19009KT 16/02 A2998 RMK A01 T01630015  RH  037%=      5-min Rain = 0
KSP2 041540Z 19011KT 16/01 A2998 RMK A01 T01620012  RH  036%=      5-min Rain = 0
KSP2 041541Z 19009KT 16/01 A2998 RMK A01 T01600011  RH  037%=      5-min Rain = 0
KSP2 041542Z 18011KT 16/01 A2998 RMK A01 T01600012  RH  037%=      5-min Rain = 0
KSP2 041543Z 19014KT 16/01 A2998 RMK A01 T01600009  RH  036%=      5-min Rain = 0
KSP2 041544Z 19013KT 16/01 A2998 RMK A01 T01580008  RH  036%=      5-min Rain = 0
KSP2 041545Z 19013KT 16/01 A2998 RMK A01 T01560008  RH  036%=      5-min Rain = 0
KSP2 041546Z 19014KT 16/01 A2998 RMK A01 T01550007  RH  037%=      5-min Rain = 0
KSP2 041547Z 19013KT 15/01 A2998 RMK A01 T01530007  RH  037%=      5-min Rain = 0
KSP2 041548Z 19013KT 15/01 A2998 RMK A01 T01530007  RH  037%=      5-min Rain = 0
KSP2 041549Z 19013KT 15/01 A2998 RMK A01 T01530006  RH  037%=      5-min Rain = 0
KSP2 041550Z 19012KT 15/01 A2998 RMK A01 T01530007  RH  037%=      5-min Rain = 0
KSP2 041551Z 19010KT 15/01 A2998 RMK A01 T01530008  RH  037%=      5-min Rain = 0
KSP2 041552Z 19010KT 15/01 A2998 RMK A01 T01530008  RH  037%=      5-min Rain = 0
KSP2 041553Z 18012KT 15/01 A2998 RMK A01 T01530008  RH  037%=      5-min Rain = 0
KSP2 041554Z 18013KT 15/01 A2998 RMK A01 T01530006  RH  037%=      5-min Rain = 0
KSP2 041555Z 18010KT 15/01 A2998 RMK A01 T01520006  RH  037%=      5-min Rain = 0
KSP2 041556Z 18012KT 15/01 A2998 RMK A01 T01520006  RH  037%=      5-min Rain = 0
KSP2 041557Z 18012KT 15/01 A2998 RMK A01 T01520006  RH  037%=      5-min Rain = 0
KSP2 041558Z 18011KT 15/01 A2998 RMK A01 T01520007  RH  037%=      5-min Rain = 0
KSP2 041559Z 17013KT 15/01 A2998 RMK A01 T01520009  RH  038%=      5-min Rain = 0
KSP2 041600Z 17013KT 15/01 A2998 RMK A01 T01520008  RH  038%=      5-min Rain = 0
KSP2 041601Z 16012KT 15/01 A2998 RMK A01 T01510008  RH  038%=      5-min Rain = 0
KSP2 041602Z 16013KT 15/01 A2998 RMK A01 T01500009  RH  038%=      5-min Rain = 0
KSP2 041603Z 17012KT 15/01 A2998 RMK A01 T01490008  RH  038%=      5-min Rain = 0
KSP2 041604Z 17011KT 15/01 A2998 RMK A01 T01490008  RH  038%=      5-min Rain = 0
KSP2 041605Z 17011KT 15/01 A2998 RMK A01 T01490009  RH  038%=      5-min Rain = 0
KSP2 041606Z 17011KT 15/01 A2998 RMK A01 T01490009  RH  039%=      5-min Rain = 0
KSP2 041607Z 16010KT 15/01 A2997 RMK A01 T01490009  RH  039%=      5-min Rain = 0
KSP2 041608Z 17013KT 15/01 A2997 RMK A01 T01490011  RH  039%=      5-min Rain = 0
KSP2 041609Z 17013KT 15/01 A2997 RMK A01 T01490011  RH  039%=      5-min Rain = 0
KSP2 041610Z 17011KT 15/01 A2998 RMK A01 T01500011  RH  039%=      5-min Rain = 0
KSP2 041611Z 18010KT 15/01 A2998 RMK A01 T01500011  RH  039%=      5-min Rain = 0
KSP2 041612Z 18009KT 15/01 A2998 RMK A01 T01500013  RH  039%=      5-min Rain = 0
KSP2 041613Z 17011KT 15/01 A2998 RMK A01 T01510013  RH  039%=      5-min Rain = 0
KSP2 041614Z 18010KT 15/01 A2998 RMK A01 T01520012  RH  039%=      5-min Rain = 0
KSP2 041615Z 17010KT 15/01 A2998 RMK A01 T01520012  RH  039%=      5-min Rain = 0
KSP2 041616Z 18013KT 15/01 A2998 RMK A01 T01540012  RH  038%=      5-min Rain = 0
KSP2 041617Z 18012KT 16/01 A2998 RMK A01 T01550010  RH  038%=      5-min Rain = 0
KSP2 041618Z 18011KT 16/01 A2998 RMK A01 T01580013  RH  038%=      5-min Rain = 0
KSP2 041619Z 19012KT 16/01 A2997 RMK A01 T01610013  RH  037%=      5-min Rain = 0
KSP2 041620Z 19011KT 16/01 A2998 RMK A01 T01630013  RH  036%=      5-min Rain = 0
KSP2 041621Z 18012KT 17/01 A2997 RMK A01 T01650014  RH  036%=      5-min Rain = 0
KSP2 041622Z 17012KT 17/01 A2997 RMK A01 T01660014  RH  036%=      5-min Rain = 0
KSP2 041623Z 18010KT 17/01 A2997 RMK A01 T01670014  RH  036%=      5-min Rain = 0
KSP2 041624Z 18012KT 17/01 A2997 RMK A01 T01680013  RH  035%=      5-min Rain = 0
KSP2 041625Z 17011KT 17/01 A2997 RMK A01 T01670012  RH  035%=      5-min Rain = 0
KSP2 041626Z 17010KT 17/01 A2997 RMK A01 T01670012  RH  035%=      5-min Rain = 0
KSP2 041627Z 17010KT 17/01 A2997 RMK A01 T01670012  RH  035%=      5-min Rain = 0
KSP2 041628Z 17012KT 17/01 A2997 RMK A01 T01660013  RH  036%=      5-min Rain = 0
KSP2 041629Z 18013KT 17/01 A2997 RMK A01 T01670012  RH  035%=      5-min Rain = 0
KSP2 041630Z 17011KT 17/01 A2998 RMK A01 T01670012  RH  035%=      5-min Rain = 0
KSP2 041631Z 17011KT 17/01 A2998 RMK A01 T01670013  RH  035%=      5-min Rain = 0
KSP2 041632Z 17009KT 17/02 A2997 RMK A01 T01690015  RH  036%=      5-min Rain = 0
KSP2 041633Z 16010KT 17/01 A2997 RMK A01 T01700014  RH  035%=      5-min Rain = 0
KSP2 041634Z 17010KT 17/01 A2997 RMK A01 T01710013  RH  035%=      5-min Rain = 0
KSP2 041635Z 17011KT 17/01 A2997 RMK A01 T01710012  RH  034%=      5-min Rain = 0
KSP2 041636Z 17009KT 17/01 A2997 RMK A01 T01710013  RH  034%=      5-min Rain = 0
KSP2 041637Z 16010KT 17/01 A2997 RMK A01 T01720013  RH  034%=      5-min Rain = 0
KSP2 041638Z 16009KT 17/01 A2997 RMK A01 T01730012  RH  034%=      5-min Rain = 0
KSP2 041639Z 16010KT 17/01 A2997 RMK A01 T01740012  RH  034%=      5-min Rain = 0
KSP2 041640Z 16009KT 17/01 A2997 RMK A01 T01730012  RH  034%=      5-min Rain = 0
KSP2 041641Z 18011KT 18/01 A2997 RMK A01 T01760012  RH  033%=      5-min Rain = 0
KSP2 041642Z 16009KT 18/01 A2997 RMK A01 T01800014  RH  033%=      5-min Rain = 0
KSP2 041643Z 16009KT 18/02 A2997 RMK A01 T01830015  RH  032%=      5-min Rain = 0
KSP2 041644Z 17011KT 19/01 A2997 RMK A01 T01850013  RH  032%=      5-min Rain = 0
KSP2 041645Z 17010KT 19/01 A2997 RMK A01 T01860013  RH  031%=      5-min Rain = 0
KSP2 041646Z 17009KT 19/02 A2997 RMK A01 T01890015  RH  031%=      5-min Rain = 0
KSP2 041647Z 17010KT 19/02 A2997 RMK A01 T01940017  RH  031%=      5-min Rain = 0
KSP2 041648Z 17011KT 20/01 A2997 RMK A01 T01970014  RH  029%=      5-min Rain = 0
KSP2 041649Z 17009KT 20/01 A2997 RMK A01 T01980012  RH  029%=      5-min Rain = 0
KSP2 041650Z 18011KT 20/01 A2997 RMK A01 T01980012  RH  029%=      5-min Rain = 0
KSP2 041651Z 19008KT 20/01 A2997 RMK A01 T01980013  RH  029%=      5-min Rain = 0
KSP2 041652Z 17009KT 20/01 A2997 RMK A01 T02020014  RH  029%=      5-min Rain = 0
KSP2 041653Z 17011KT 20/01 A2997 RMK A01 T02040012  RH  028%=      5-min Rain = 0
KSP2 041654Z 17011KT 21/01 A2997 RMK A01 T02050012  RH  028%=      5-min Rain = 0
KSP2 041655Z 17013KT 21/01 A2997 RMK A01 T02070010  RH  027%=      5-min Rain = 0
KSP2 041656Z 17012KT 21/01 A2997 RMK A01 T02060008  RH  027%=      5-min Rain = 0
KSP2 041657Z 17009KT 20/01 A2997 RMK A01 T02040010  RH  027%=      5-min Rain = 0
KSP2 041658Z 16010KT 20/01 A2997 RMK A01 T02040012  RH  028%=      5-min Rain = 0
KSP2 041659Z 18012KT 20/01 A2997 RMK A01 T02040011  RH  028%=      5-min Rain = 0
KSP2 041700Z 17011KT 21/01 A2997 RMK A01 T02050009  RH  027%=      5-min Rain = 0
KSP2 041701Z 17009KT 20/01 A2997 RMK A01 T02030007  RH  027%=      5-min Rain = 0
KSP2 041702Z 18013KT 20/01 A2997 RMK A01 T02030009  RH  028%=      5-min Rain = 0
KSP2 041703Z 18013KT 20/01 A2997 RMK A01 T02030008  RH  027%=      5-min Rain = 0
KSP2 041704Z 18009KT 20/01 A2997 RMK A01 T02000007  RH  028%=      5-min Rain = 0
KSP2 041705Z 17010KT 20/01 A2997 RMK A01 T01990009  RH  028%=      5-min Rain = 0
KSP2 041706Z 16009KT 20/01 A2997 RMK A01 T02000008  RH  028%=      5-min Rain = 0
KSP2 041707Z 17011KT 20/01 A2997 RMK A01 T02000009  RH  028%=      5-min Rain = 0
KSP2 041708Z 17013KT 20/01 A2997 RMK A01 T02040012  RH  028%=      5-min Rain = 0
KSP2 041709Z 18011KT 21/01 A2997 RMK A01 T02060010  RH  027%=      5-min Rain = 0
KSP2 041710Z 19008KT 21/01 A2997 RMK A01 T02070009  RH  027%=      5-min Rain = 0
KSP2 041711Z 17010KT 21/01 A2997 RMK A01 T02060011  RH  027%=      5-min Rain = 0
KSP2 041712Z 18007G12KT 21/01 A2997 RMK A01 T02060008  RH  027%=      5-min Rain = 0
KSP2 041713Z 19009G14KT 20/01 A2997 RMK A01 T02030008  RH  027%=      5-min Rain = 0
KSP2 041714Z 18009KT 20/01 A2997 RMK A01 T02030008  RH  027%=      5-min Rain = 0
KSP2 041715Z 17012KT 20/01 A2997 RMK A01 T02020008  RH  027%=      5-min Rain = 0
KSP2 041716Z 17013KT 20/01 A2997 RMK A01 T02010007  RH  027%=      5-min Rain = 0
KSP2 041717Z 18014KT 20/01 A2997 RMK A01 T01990006  RH  028%=      5-min Rain = 0
KSP2 041718Z 17012KT 20/01 A2997 RMK A01 T01990006  RH  028%=      5-min Rain = 0
KSP2 041719Z 17010KT 20/01 A2997 RMK A01 T01980006  RH  028%=      5-min Rain = 0
KSP2 041720Z 17011KT 20/01 A2997 RMK A01 T01980007  RH  028%=      5-min Rain = 0
KSP2 041721Z 17012KT 20/01 A2997 RMK A01 T01980007  RH  028%=      5-min Rain = 0
KSP2 041722Z 18011KT 20/01 A2997 RMK A01 T01970006  RH  028%=      5-min Rain = 0
KSP2 041723Z 18010KT 20/01 A2997 RMK A01 T01970007  RH  028%=      5-min Rain = 0
KSP2 041724Z 19009KT 20/01 A2997 RMK A01 T01980006  RH  028%=      5-min Rain = 0
KSP2 041725Z 18009KT 20/01 A2997 RMK A01 T01990006  RH  027%=      5-min Rain = 0
KSP2 041726Z 17010KT 20/01 A2996 RMK A01 T02000007  RH  027%=      5-min Rain = 0
KSP2 041727Z 18009KT 20/01 A2996 RMK A01 T02000007  RH  027%=      5-min Rain = 0
KSP2 041728Z 18011KT 20/01 A2997 RMK A01 T02010008  RH  028%=      5-min Rain = 0
KSP2 041729Z 18009KT 20/01 A2997 RMK A01 T02030007  RH  027%=      5-min Rain = 0
KSP2 041730Z 17009KT 21/01 A2997 RMK A01 T02050009  RH  027%=      5-min Rain = 0
KSP2 041731Z 16010KT 21/01 A2997 RMK A01 T02080010  RH  027%=      5-min Rain = 0
KSP2 041732Z 17009KT 21/01 A2996 RMK A01 T02090007  RH  026%=      5-min Rain = 0
KSP2 041733Z 19009KT 21/01 A2996 RMK A01 T02080009  RH  027%=      5-min Rain = 0
KSP2 041734Z 17010KT 21/01 A2996 RMK A01 T02070007  RH  026%=      5-min Rain = 0
KSP2 041735Z 16009KT 21/01 A2996 RMK A01 T02050005  RH  026%=      5-min Rain = 0
KSP2 041736Z 15008KT 20/01 A2996 RMK A01 T02030005  RH  027%=      5-min Rain = 0
KSP2 041737Z 17010KT 20/01 A2996 RMK A01 T02020005  RH  027%=      5-min Rain = 0
KSP2 041738Z 17010KT 20/00 A2996 RMK A01 T02010004  RH  027%=      5-min Rain = 0
KSP2 041739Z 18009KT 20/00 A2997 RMK A01 T02000004  RH  027%=      5-min Rain = 0
KSP2 041740Z 18008KT 20/01 A2996 RMK A01 T02000005  RH  027%=      5-min Rain = 0
KSP2 041741Z 19010KT 20/01 A2996 RMK A01 T02000005  RH  027%=      5-min Rain = 0
KSP2 041742Z 18010KT 20/01 A2996 RMK A01 T02000005  RH  027%=      5-min Rain = 0
KSP2 041743Z 19011KT 20/01 A2996 RMK A01 T02030006  RH  027%=      5-min Rain = 0
KSP2 041744Z 19010KT 20/01 A2996 RMK A01 T02030005  RH  027%=      5-min Rain = 0
KSP2 041745Z 20009KT 20/01 A2996 RMK A01 T02030007  RH  027%=      5-min Rain = 0
KSP2 041746Z 20008KT 20/01 A2996 RMK A01 T02030008  RH  027%=      5-min Rain = 0
KSP2 041747Z 21007KT 21/01 A2996 RMK A01 T02050009  RH  027%=      5-min Rain = 0
KSP2 041748Z 20010KT 21/01 A2996 RMK A01 T02060008  RH  027%=      5-min Rain = 0
KSP2 041749Z 20009KT 21/01 A2996 RMK A01 T02060008  RH  027%=      5-min Rain = 0
KSP2 041750Z 21008KT 21/01 A2996 RMK A01 T02070011  RH  027%=      5-min Rain = 0
KSP2 041751Z 22007KT 21/01 A2996 RMK A01 T02110012  RH  027%=      5-min Rain = 0
KSP2 041752Z 22007KT 21/01 A2996 RMK A01 T02120009  RH  026%=      5-min Rain = 0
KSP2 041753Z 20008KT 21/01 A2996 RMK A01 T02120009  RH  026%=      5-min Rain = 0
KSP2 041754Z 19008KT 21/01 A2996 RMK A01 T02120009  RH  026%=      5-min Rain = 0
KSP2 041755Z 18006KT 21/01 A2996 RMK A01 T02120008  RH  026%=      5-min Rain = 0
KSP2 041756Z 17008KT 21/01 A2996 RMK A01 T02120009  RH  026%=      5-min Rain = 0
KSP2 041757Z 17008KT 21/01 A2996 RMK A01 T02120008  RH  026%=      5-min Rain = 0
KSP2 041758Z 17009KT 21/01 A2996 RMK A01 T02120010  RH  026%=      5-min Rain = 0
KSP2 041759Z 18008KT 22/01 A2996 RMK A01 T02150010  RH  026%=      5-min Rain = 0
KSP2 041800Z 17008KT 22/01 A2996 RMK A01 T02150011  RH  026%=      5-min Rain = 0
KSP2 041801Z 16008KT 22/01 A2995 RMK A01 T02160010  RH  025%=      5-min Rain = 0
KSP2 041802Z 16007KT 22/01 A2995 RMK A01 T02160010  RH  025%=      5-min Rain = 0
KSP2 041803Z 17007KT 22/01 A2995 RMK A01 T02170006  RH  025%=      5-min Rain = 0
KSP2 041804Z 17007KT 22/01 A2995 RMK A01 T02160006  RH  025%=      5-min Rain = 0
KSP2 041805Z 18011KT 22/01 A2995 RMK A01 T02200011  RH  025%=      5-min Rain = 0
KSP2 041806Z 18011KT 23/01 A2995 RMK A01 T02250007  RH  024%=      5-min Rain = 0
KSP2 041807Z 18011KT 22/01 A2995 RMK A01 T02240005  RH  024%=      5-min Rain = 0
KSP2 041808Z 19012KT 22/01 A2995 RMK A01 T02220006  RH  024%=      5-min Rain = 0
KSP2 041809Z 19011KT 22/01 A2995 RMK A01 T02230006  RH  024%=      5-min Rain = 0
KSP2 041810Z 18013G18KT 22/00 A2995 RMK A01 T02230004  RH  023%=      5-min Rain = 0
KSP2 041811Z 18014KT 22/00 A2995 RMK A01 T02200002  RH  023%=      5-min Rain = 0
KSP2 041812Z 18014KT 22/00 A2995 RMK A01 T02190002  RH  024%=      5-min Rain = 0
KSP2 041813Z 17016KT 22/00 A2995 RMK A01 T02180002  RH  024%=      5-min Rain = 0
KSP2 041814Z 18015KT 22/00 A2994 RMK A01 T02160002  RH  024%=      5-min Rain = 0
KSP2 041815Z 18015KT 22/00 A2994 RMK A01 T02150004  RH  025%=      5-min Rain = 0
KSP2 041816Z 18014KT 21/00 A2994 RMK A01 T02140004  RH  025%=      5-min Rain = 0
KSP2 041817Z 18012G17KT 21/01 A2994 RMK A01 T02130005  RH  025%=      5-min Rain = 0
KSP2 041818Z 18015KT 21/01 A2994 RMK A01 T02140005  RH  025%=      5-min Rain = 0
KSP2 041819Z 17015KT 22/01 A2994 RMK A01 T02150005  RH  025%=      5-min Rain = 0
KSP2 041820Z 17010KT 22/01 A2994 RMK A01 T02150006  RH  025%=      5-min Rain = 0
KSP2 041821Z 18012KT 22/01 A2994 RMK A01 T02170008  RH  025%=      5-min Rain = 0
KSP2 041822Z 17011KT 22/01 A2994 RMK A01 T02180007  RH  025%=      5-min Rain = 0
KSP2 041823Z 17011KT 22/01 A2994 RMK A01 T02170008  RH  025%=      5-min Rain = 0
KSP2 041824Z 16010KT 22/01 A2993 RMK A01 T02170007  RH  025%=      5-min Rain = 0
KSP2 041825Z 16010KT 22/01 A2993 RMK A01 T02160008  RH  025%=      5-min Rain = 0
KSP2 041826Z 17009KT 22/01 A2993 RMK A01 T02180009  RH  025%=      5-min Rain = 0
KSP2 041827Z 15008KT 22/01 A2993 RMK A01 T02180009  RH  025%=      5-min Rain = 0
KSP2 041828Z 15010KT 22/01 A2993 RMK A01 T02210011  RH  025%=      5-min Rain = 0
KSP2 041829Z 16013KT 22/01 A2993 RMK A01 T02240011  RH  024%=      5-min Rain = 0
KSP2 041830Z 16012KT 23/01 A2993 RMK A01 T02280013  RH  024%=      5-min Rain = 0
KSP2 041831Z 16013KT 23/01 A2993 RMK A01 T02300012  RH  024%=      5-min Rain = 0
KSP2 041832Z 16014KT 23/01 A2993 RMK A01 T02290010  RH  023%=      5-min Rain = 0
KSP2 041833Z 16014KT 23/01 A2993 RMK A01 T02270010  RH  024%=      5-min Rain = 0
KSP2 041834Z 16012KT 23/01 A2993 RMK A01 T02260010  RH  024%=      5-min Rain = 0
KSP2 041835Z 17013KT 23/01 A2993 RMK A01 T02280013  RH  024%=      5-min Rain = 0
KSP2 041836Z 16010KT 23/01 A2993 RMK A01 T02310012  RH  024%=      5-min Rain = 0
KSP2 041837Z 16013KT 24/02 A2992 RMK A01 T02350015  RH  024%=      5-min Rain = 0
KSP2 041838Z 15015KT 24/01 A2992 RMK A01 T02360011  RH  023%=      5-min Rain = 0
KSP2 041839Z 15014KT 23/01 A2992 RMK A01 T02330008  RH  023%=      5-min Rain = 0
KSP2 041840Z 17013KT 23/01 A2992 RMK A01 T02310010  RH  023%=      5-min Rain = 0
KSP2 041841Z 16014KT 23/01 A2992 RMK A01 T02290009  RH  023%=      5-min Rain = 0
KSP2 041842Z 16012KT 23/01 A2992 RMK A01 T02300012  RH  024%=      5-min Rain = 0
KSP2 041843Z 15012KT 23/01 A2992 RMK A01 T02320012  RH  023%=      5-min Rain = 0
KSP2 041844Z 17011KT 23/01 A2992 RMK A01 T02330013  RH  023%=      5-min Rain = 0
KSP2 041845Z 17013KT 23/01 A2992 RMK A01 T02340012  RH  023%=      5-min Rain = 0
KSP2 041846Z 16013KT 23/01 A2992 RMK A01 T02340012  RH  023%=      5-min Rain = 0
KSP2 041847Z 17015KT 23/01 A2992 RMK A01 T02320010  RH  023%=      5-min Rain = 0
KSP2 041848Z 17012KT 23/01 A2992 RMK A01 T02300010  RH  023%=      5-min Rain = 0
KSP2 041849Z 16012KT 23/01 A2992 RMK A01 T02310011  RH  023%=      5-min Rain = 0
KSP2 041850Z 18013KT 23/01 A2992 RMK A01 T02310010  RH  023%=      5-min Rain = 0
KSP2 041851Z 17013KT 23/01 A2992 RMK A01 T02280010  RH  024%=      5-min Rain = 0
KSP2 041852Z 16012KT 23/01 A2992 RMK A01 T02260010  RH  024%=      5-min Rain = 0
KSP2 041853Z 16011KT 23/01 A2992 RMK A01 T02260011  RH  024%=      5-min Rain = 0
KSP2 041854Z 19012KT 23/01 A2992 RMK A01 T02290013  RH  024%=      5-min Rain = 0
KSP2 041855Z 17014G20KT 23/01 A2992 RMK A01 T02300011  RH  024%=      5-min Rain = 0
KSP2 041856Z 17015KT 23/01 A2992 RMK A01 T02300009  RH  023%=      5-min Rain = 0
KSP2 041857Z 17014KT 23/01 A2991 RMK A01 T02290009  RH  023%=      5-min Rain = 0
KSP2 041858Z 16011KT 23/01 A2991 RMK A01 T02310012  RH  024%=      5-min Rain = 0
KSP2 041859Z 17013KT 23/01 A2991 RMK A01 T02340011  RH  023%=      5-min Rain = 0
KSP2 041900Z 19013KT 23/01 A2991 RMK A01 T02340009  RH  023%=      5-min Rain = 0
KSP2 041901Z 18012KT 23/01 A2991 RMK A01 T02340010  RH  023%=      5-min Rain = 0
KSP2 041902Z 17013KT 23/01 A2991 RMK A01 T02340010  RH  023%=      5-min Rain = 0
KSP2 041903Z 18014KT 23/01 A2991 RMK A01 T02330010  RH  023%=      5-min Rain = 0
KSP2 041904Z 17013KT 23/01 A2991 RMK A01 T02320010  RH  023%=      5-min Rain = 0
KSP2 041905Z 17015KT 23/01 A2991 RMK A01 T02310009  RH  023%=      5-min Rain = 0
KSP2 041906Z 17010KT 23/01 A2991 RMK A01 T02300006  RH  023%=      5-min Rain = 0
KSP2 041907Z 17010KT 23/01 A2991 RMK A01 T02290007  RH  023%=      5-min Rain = 0
KSP2 041908Z 17012KT 23/01 A2991 RMK A01 T02310012  RH  024%=      5-min Rain = 0
KSP2 041909Z 17010KT 23/01 A2991 RMK A01 T02310013  RH  024%=      5-min Rain = 0
KSP2 041910Z 17014KT 23/01 A299 RMK A01 T02320013  RH  024%=      5-min Rain = 0
KSP2 041911Z 16014KT 23/01 A299 RMK A01 T02330012  RH  023%=      5-min Rain = 0
KSP2 041912Z 16013KT 23/01 A299 RMK A01 T02320011  RH  023%=      5-min Rain = 0
KSP2 041913Z 17012KT 23/01 A299 RMK A01 T02310012  RH  024%=      5-min Rain = 0
KSP2 041914Z 16010KT 23/01 A299 RMK A01 T02310013  RH  024%=      5-min Rain = 0
KSP2 041915Z 16012KT 23/02 A299 RMK A01 T02340016  RH  024%=      5-min Rain = 0
KSP2 041916Z 17013KT 24/02 A2989 RMK A01 T02380016  RH  023%=      5-min Rain = 0
KSP2 041917Z 17012KT 24/01 A2989 RMK A01 T02380011  RH  022%=      5-min Rain = 0
KSP2 041918Z 17012KT 24/01 A2989 RMK A01 T02370011  RH  023%=      5-min Rain = 0
KSP2 041919Z 18013KT 24/01 A2989 RMK A01 T02360009  RH  022%=      5-min Rain = 0
KSP2 041920Z 18012KT 24/01 A2989 RMK A01 T02360006  RH  022%=      5-min Rain = 0
KSP2 041921Z 18011KT 24/01 A2989 RMK A01 T02350006  RH  022%=      5-min Rain = 0
KSP2 041922Z 18015KT 24/01 A2989 RMK A01 T02350007  RH  022%=      5-min Rain = 0
KSP2 041923Z 17014KT 24/01 A2989 RMK A01 T02360007  RH  022%=      5-min Rain = 0
KSP2 041924Z 17014KT 24/01 A2989 RMK A01 T02360006  RH  022%=      5-min Rain = 0
KSP2 041925Z 17013KT 24/01 A2989 RMK A01 T02350007  RH  022%=      5-min Rain = 0
KSP2 041926Z 19012KT 24/01 A2988 RMK A01 T02370008  RH  022%=      5-min Rain = 0
KSP2 041927Z 18013KT 24/01 A2988 RMK A01 T02370008  RH  022%=      5-min Rain = 0
KSP2 041928Z 17018KT 24/01 A2988 RMK A01 T02360007  RH  022%=      5-min Rain = 0
KSP2 041929Z 18012KT 24/01 A2988 RMK A01 T02350006  RH  022%=      5-min Rain = 0
KSP2 041930Z 18015KT 24/01 A2988 RMK A01 T02350006  RH  022%=      5-min Rain = 0
KSP2 041931Z 19014KT 24/01 A2988 RMK A01 T02350005  RH  022%=      5-min Rain = 0
KSP2 041932Z 19011KT 24/01 A2988 RMK A01 T02350005  RH  022%=      5-min Rain = 0
KSP2 041933Z 16014KT 24/01 A2988 RMK A01 T02350010  RH  023%=      5-min Rain = 0
KSP2 041934Z 15015G20KT 23/02 A2988 RMK A01 T02340018  RH  024%=      5-min Rain = 0
KSP2 041935Z 15016KT 23/02 A2988 RMK A01 T02320020  RH  025%=      5-min Rain = 0
KSP2 041936Z 15014KT 23/02 A2987 RMK A01 T02320021  RH  025%=      5-min Rain = 0
KSP2 041937Z 16016KT 23/02 A2987 RMK A01 T02310020  RH  025%=      5-min Rain = 0
KSP2 041938Z 16015KT 23/02 A2987 RMK A01 T02310018  RH  025%=      5-min Rain = 0
KSP2 041939Z 16016KT 23/02 A2987 RMK A01 T02300020  RH  025%=      5-min Rain = 0
KSP2 041940Z 15017KT 23/02 A2987 RMK A01 T02290022  RH  026%=      5-min Rain = 0
KSP2 041941Z 15016KT 23/02 A2987 RMK A01 T02270022  RH  026%=      5-min Rain = 0
KSP2 041942Z 15014KT 23/02 A2987 RMK A01 T02270023  RH  026%=      5-min Rain = 0
KSP2 041943Z 14013KT 23/02 A2987 RMK A01 T02270022  RH  026%=      5-min Rain = 0
KSP2 041944Z 14014KT 23/02 A2986 RMK A01 T02290024  RH  026%=      5-min Rain = 0
KSP2 041945Z 14015KT 23/02 A2986 RMK A01 T02320024  RH  026%=      5-min Rain = 0
KSP2 041946Z 14018KT 24/02 A2986 RMK A01 T02350024  RH  025%=      5-min Rain = 0
KSP2 041947Z 14017KT 24/02 A2986 RMK A01 T02370022  RH  024%=      5-min Rain = 0
KSP2 041948Z 15016KT 24/02 A2986 RMK A01 T02400024  RH  024%=      5-min Rain = 0
KSP2 041949Z 14015KT 24/02 A2986 RMK A01 T02430023  RH  024%=      5-min Rain = 0
KSP2 041950Z 16016KT 25/02 A2985 RMK A01 T02450023  RH  023%=      5-min Rain = 0
KSP2 041951Z 15016KT 25/02 A2985 RMK A01 T02480023  RH  023%=      5-min Rain = 0
KSP2 041952Z 15015KT 25/02 A2985 RMK A01 T02510024  RH  023%=      5-min Rain = 0
KSP2 041953Z 15014G19KT 25/02 A2985 RMK A01 T02510020  RH  022%=      5-min Rain = 0
KSP2 041954Z 14018KT 25/02 A2985 RMK A01 T02470018  RH  022%=      5-min Rain = 0
KSP2 041955Z 15014KT 25/02 A2985 RMK A01 T02460019  RH  023%=      5-min Rain = 0
KSP2 041956Z 15017KT 25/02 A2985 RMK A01 T02480020  RH  023%=      5-min Rain = 0
KSP2 041957Z 15016KT 25/02 A2985 RMK A01 T02480019  RH  022%=      5-min Rain = 0
KSP2 041958Z 16018KT 25/02 A2985 RMK A01 T02480021  RH  023%=      5-min Rain = 0
KSP2 041959Z 16016KT 25/02 A2985 RMK A01 T02510022  RH  023%=      5-min Rain = 0
KSP2 042000Z 15016G21KT 25/02 A2985 RMK A01 T02520021  RH  022%=      5-min Rain = 0
KSP2 042001Z 15019G24KT 25/02 A2984 RMK A01 T02500019  RH  022%=      5-min Rain = 0
KSP2 042002Z 17017KT 25/02 A2984 RMK A01 T02490020  RH  023%=      5-min Rain = 0
KSP2 042003Z 16017KT 25/02 A2984 RMK A01 T02490021  RH  023%=      5-min Rain = 0
KSP2 042004Z 15016KT 25/02 A2984 RMK A01 T02490021  RH  022%=      5-min Rain = 0
KSP2 042005Z 15017G22KT 25/02 A2984 RMK A01 T02460020  RH  023%=      5-min Rain = 0
KSP2 042006Z 16020KT 25/02 A2984 RMK A01 T02470020  RH  023%=      5-min Rain = 0
KSP2 042007Z 18014KT 25/02 A2984 RMK A01 T02520015  RH  021%=      5-min Rain = 0
KSP2 042008Z 15017KT 25/02 A2984 RMK A01 T02530019  RH  022%=      5-min Rain = 0
KSP2 042009Z 15014KT 25/02 A2984 RMK A01 T02510020  RH  022%=      5-min Rain = 0
KSP2 042010Z 15013KT 25/02 A2984 RMK A01 T02480021  RH  023%=      5-min Rain = 0
KSP2 042011Z 15015KT 25/02 A2984 RMK A01 T02470019  RH  022%=      5-min Rain = 0
KSP2 042012Z 16015KT 25/02 A2984 RMK A01 T02480017  RH  022%=      5-min Rain = 0
KSP2 042013Z 17014KT 25/01 A2984 RMK A01 T02480012  RH  021%=      5-min Rain = 0
KSP2 042014Z 17016KT 25/01 A2984 RMK A01 T02460012  RH  022%=      5-min Rain = 0
KSP2 042015Z 17017KT 24/01 A2984 RMK A01 T02440011  RH  022%=      5-min Rain = 0
KSP2 042016Z 18014KT 24/01 A2984 RMK A01 T02400009  RH  022%=      5-min Rain = 0
KSP2 042017Z 16016KT 24/01 A2984 RMK A01 T02360010  RH  023%=      5-min Rain = 0
KSP2 042018Z 16015KT 24/01 A2984 RMK A01 T02350010  RH  023%=      5-min Rain = 0
KSP2 042019Z 18014KT 23/01 A2984 RMK A01 T02340011  RH  023%=      5-min Rain = 0
KSP2 042020Z 18016KT 24/01 A2984 RMK A01 T02350010  RH  023%=      5-min Rain = 0
KSP2 042021Z 17015KT 24/01 A2983 RMK A01 T02400014  RH  023%=      5-min Rain = 0
KSP2 042022Z 17015KT 25/01 A2983 RMK A01 T02450013  RH  022%=      5-min Rain = 0
KSP2 042023Z 16017KT 25/01 A2983 RMK A01 T02450012  RH  022%=      5-min Rain = 0
KSP2 042024Z 17015KT 25/01 A2983 RMK A01 T02460011  RH  021%=      5-min Rain = 0
KSP2 042025Z 17013G18KT 25/01 A2983 RMK A01 T02460012  RH  022%=      5-min Rain = 0
KSP2 042026Z 15016KT 25/01 A2983 RMK A01 T02450013  RH  022%=      5-min Rain = 0
KSP2 042027Z 16019KT 24/01 A2983 RMK A01 T02430013  RH  022%=      5-min Rain = 0
KSP2 042028Z 17016KT 24/01 A2983 RMK A01 T02420013  RH  022%=      5-min Rain = 0
KSP2 042029Z 17014KT 24/01 A2983 RMK A01 T02410012  RH  022%=      5-min Rain = 0
KSP2 042030Z 17012KT 24/01 A2983 RMK A01 T02390012  RH  022%=      5-min Rain = 0
KSP2 042031Z 17012KT 24/01 A2983 RMK A01 T02380013  RH  023%=      5-min Rain = 0
KSP2 042032Z 16014KT 24/01 A2983 RMK A01 T02380013  RH  023%=      5-min Rain = 0
KSP2 042033Z 16013KT 24/01 A2982 RMK A01 T02370013  RH  023%=      5-min Rain = 0
KSP2 042034Z 16013KT 24/02 A2982 RMK A01 T02360015  RH  023%=      5-min Rain = 0
KSP2 042035Z 16015KT 24/01 A2982 RMK A01 T02360014  RH  023%=      5-min Rain = 0
KSP2 042036Z 17017KT 24/02 A2982 RMK A01 T02360015  RH  023%=      5-min Rain = 0
KSP2 042037Z 17014KT 24/02 A2982 RMK A01 T02370015  RH  023%=      5-min Rain = 0
KSP2 042038Z 17014G20KT 24/02 A2982 RMK A01 T02390016  RH  023%=      5-min Rain = 0
KSP2 042039Z 16015KT 24/02 A2982 RMK A01 T02400016  RH  023%=      5-min Rain = 0
KSP2 042040Z 17012KT 24/02 A2982 RMK A01 T02390016  RH  023%=      5-min Rain = 0
KSP2 042041Z 17015G20KT 24/02 A2982 RMK A01 T02390016  RH  023%=      5-min Rain = 0
KSP2 042042Z 17015G20KT 24/02 A2982 RMK A01 T02390015  RH  023%=      5-min Rain = 0
KSP2 042043Z 17019KT 24/02 A2982 RMK A01 T02390016  RH  023%=      5-min Rain = 0
KSP2 042044Z 17017KT 24/02 A2982 RMK A01 T02390016  RH  023%=      5-min Rain = 0
KSP2 042045Z 17017KT 24/02 A2982 RMK A01 T02380017  RH  023%=      5-min Rain = 0
KSP2 042046Z 15016KT 24/02 A2982 RMK A01 T02380019  RH  024%=      5-min Rain = 0
KSP2 042047Z 16018KT 24/02 A2982 RMK A01 T02360019  RH  024%=      5-min Rain = 0
KSP2 042048Z 16017KT 24/02 A2982 RMK A01 T02350019  RH  024%=      5-min Rain = 0
KSP2 042049Z 16016KT 24/02 A2982 RMK A01 T02350021  RH  025%=      5-min Rain = 0
KSP2 042050Z 16018KT 24/02 A2982 RMK A01 T02350021  RH  025%=      5-min Rain = 0
KSP2 042051Z 16016KT 24/02 A2982 RMK A01 T02350021  RH  025%=      5-min Rain = 0
KSP2 042052Z 16017KT 24/02 A2982 RMK A01 T02350022  RH  025%=      5-min Rain = 0
KSP2 042053Z 16016KT 24/02 A2982 RMK A01 T02350022  RH  025%=      5-min Rain = 0
KSP2 042054Z 16014KT 24/02 A2982 RMK A01 T02350022  RH  025%=      5-min Rain = 0
KSP2 042055Z 17015KT 24/02 A2982 RMK A01 T02350021  RH  025%=      5-min Rain = 0
KSP2 042056Z 17015KT 24/02 A2982 RMK A01 T02350021  RH  025%=      5-min Rain = 0
KSP2 042057Z 16016KT 24/02 A2982 RMK A01 T02350022  RH  025%=      5-min Rain = 0
KSP2 042058Z 16012KT 24/02 A2982 RMK A01 T02360023  RH  025%=      5-min Rain = 0
KSP2 042059Z 16014KT 24/02 A2982 RMK A01 T02350024  RH  025%=      5-min Rain = 0
KSP2 042100Z 17012KT 24/02 A2982 RMK A01 T02360024  RH  025%=      5-min Rain = 0
KSP2 042101Z 18012KT 24/02 A2982 RMK A01 T02360024  RH  025%=      5-min Rain = 0
KSP2 042102Z 18013KT 24/02 A2982 RMK A01 T02370023  RH  025%=      5-min Rain = 0
KSP2 042103Z 18015KT 24/02 A2982 RMK A01 T02380024  RH  025%=      5-min Rain = 0
KSP2 042104Z 18013KT 24/03 A2982 RMK A01 T02410025  RH  024%=      5-min Rain = 0
KSP2 042105Z 17011KT 24/03 A2982 RMK A01 T02440026  RH  024%=      5-min Rain = 0
KSP2 042106Z 19011KT 25/03 A2982 RMK A01 T02480028  RH  024%=      5-min Rain = 0
KSP2 042107Z 18010KT 25/03 A2982 RMK A01 T02520028  RH  023%=      5-min Rain = 0
KSP2 042108Z 19014G20KT 25/03 A2982 RMK A01 T02520027  RH  023%=      5-min Rain = 0
KSP2 042109Z 19015KT 25/03 A2983 RMK A01 T02530028  RH  023%=      5-min Rain = 0
KSP2 042110Z 19012KT 25/03 A2983 RMK A01 T02530027  RH  023%=      5-min Rain = 0
KSP2 042111Z 20013KT 25/01 A2982 RMK A01 T02510014  RH  021%=      5-min Rain = 0
KSP2 042112Z 22012KT 25/M01 A2982 RMK A01 T02541012  RH  017%=      5-min Rain = 0
KSP2 042113Z 23012KT 26/M02 A2982 RMK A01 T02571017  RH  016%=      5-min Rain = 0
KSP2 042114Z 23008G14KT 26/M02 A2982 RMK A01 T02601016  RH  016%=      5-min Rain = 0
KSP2 042115Z 22014G19KT 26/M02 A2982 RMK A01 T02621018  RH  016%=      5-min Rain = 0
KSP2 042116Z 23021KT 26/M02 A2981 RMK A01 T02621022  RH  015%=      5-min Rain = 0
KSP2 042117Z 23023KT 26/M02 A2981 RMK A01 T02621024  RH  015%=      5-min Rain = 0
KSP2 042118Z 24021KT 26/M02 A2981 RMK A01 T02631024  RH  015%=      5-min Rain = 0
KSP2 042119Z 23019G24KT 27/M02 A2981 RMK A01 T02661024  RH  015%=      5-min Rain = 0
KSP2 042120Z 23018G25KT 27/M02 A2981 RMK A01 T02681023  RH  015%=      5-min Rain = 0
KSP2 042121Z 23022G27KT 27/M02 A2981 RMK A01 T02691023  RH  015%=      5-min Rain = 0
KSP2 042122Z 23020G25KT 27/M03 A2981 RMK A01 T02661025  RH  015%=      5-min Rain = 0
KSP2 042123Z 24020G27KT 27/M02 A2981 RMK A01 T02661024  RH  015%=      5-min Rain = 0
KSP2 042124Z 22018G23KT 27/M02 A2981 RMK A01 T02671023  RH  015%=      5-min Rain = 0
KSP2 042125Z 22018G23KT 27/M02 A2981 RMK A01 T02691024  RH  014%=      5-min Rain = 0
KSP2 042126Z 24020KT 27/M02 A2981 RMK A01 T02701024  RH  014%=      5-min Rain = 0
KSP2 042127Z 24022G31KT 27/M03 A2981 RMK A01 T02711030  RH  014%=      5-min Rain = 0
KSP2 042128Z 25027KT 27/M04 A2981 RMK A01 T02681038  RH  013%=      5-min Rain = 0
KSP2 042129Z 25025KT 26/M04 A2981 RMK A01 T02601043  RH  013%=      5-min Rain = 0
KSP2 042130Z 25023G28KT 26/M04 A2981 RMK A01 T02561041  RH  014%=      5-min Rain = 0
KSP2 042131Z 25026KT 26/M04 A2981 RMK A01 T02561042  RH  014%=      5-min Rain = 0
KSP2 042132Z 26024KT 26/M04 A2981 RMK A01 T02571042  RH  014%=      5-min Rain = 0
KSP2 042133Z 26023G30KT 26/M04 A2981 RMK A01 T02571042  RH  014%=      5-min Rain = 0
KSP2 042134Z 25025KT 26/M04 A2981 RMK A01 T02561042  RH  014%=      5-min Rain = 0
KSP2 042135Z 25020G27KT 26/M04 A2981 RMK A01 T02571042  RH  014%=      5-min Rain = 0
KSP2 042136Z 25021G27KT 26/M04 A2981 RMK A01 T02581043  RH  013%=      5-min Rain = 0
KSP2 042137Z 26025KT 26/M04 A2982 RMK A01 T02591043  RH  013%=      5-min Rain = 0
KSP2 042138Z 25025G31KT 26/M05 A2982 RMK A01 T02601045  RH  013%=      5-min Rain = 0
KSP2 042139Z 26021G27KT 26/M05 A2981 RMK A01 T02591046  RH  013%=      5-min Rain = 0
KSP2 042140Z 26022G30KT 26/M05 A2982 RMK A01 T02591046  RH  013%=      5-min Rain = 0
KSP2 042141Z 27023KT 26/M05 A2981 RMK A01 T02591047  RH  013%=      5-min Rain = 0
KSP2 042142Z 26024G32KT 26/M04 A2981 RMK A01 T02591042  RH  013%=      5-min Rain = 0
KSP2 042143Z 24025G30KT 26/M04 A2982 RMK A01 T02601042  RH  013%=      5-min Rain = 0
KSP2 042144Z 25022G27KT 26/M04 A2982 RMK A01 T02591042  RH  013%=      5-min Rain = 0
KSP2 042145Z 25026KT 26/M05 A2982 RMK A01 T02581045  RH  013%=      5-min Rain = 0
KSP2 042146Z 25027KT 26/M05 A2982 RMK A01 T02561047  RH  013%=      5-min Rain = 0
KSP2 042147Z 25026KT 26/M05 A2982 RMK A01 T02551048  RH  013%=      5-min Rain = 0
KSP2 042148Z 25020G26KT 26/M05 A2982 RMK A01 T02551047  RH  013%=      5-min Rain = 0
KSP2 042149Z 25021G27KT 26/M05 A2982 RMK A01 T02571045  RH  013%=      5-min Rain = 0
KSP2 042150Z 25024G31KT 26/M05 A2982 RMK A01 T02581048  RH  013%=      5-min Rain = 0
KSP2 042151Z 26021KT 26/M05 A2982 RMK A01 T02561052  RH  013%=      5-min Rain = 0
KSP2 042152Z 26025G32KT 26/M05 A2981 RMK A01 T02551050  RH  013%=      5-min Rain = 0
KSP2 042153Z 25024KT 26/M05 A2982 RMK A01 T02551049  RH  013%=      5-min Rain = 0
KSP2 042154Z 25025KT 26/M05 A2982 RMK A01 T02551047  RH  013%=      5-min Rain = 0
KSP2 042155Z 26024KT 26/M05 A2981 RMK A01 T02551048  RH  013%=      5-min Rain = 0
KSP2 042156Z 25022G27KT 26/M05 A2982 RMK A01 T02561048  RH  013%=      5-min Rain = 0
KSP2 042157Z 25024G29KT 26/M05 A2981 RMK A01 T02571046  RH  013%=      5-min Rain = 0
KSP2 042158Z 24021G30KT 26/M05 A2982 RMK A01 T02571046  RH  013%=      5-min Rain = 0
KSP2 042159Z 25021G31KT 26/M04 A2982 RMK A01 T02581044  RH  013%=      5-min Rain = 0
KSP2 042200Z 25027G33KT 26/M05 A2982 RMK A01 T02571051  RH  013%=      5-min Rain = 0
KSP2 042201Z 25023G30KT 25/M05 A2982 RMK A01 T02541053  RH  013%=      5-min Rain = 0
KSP2 042202Z 26021G26KT 26/M05 A2982 RMK A01 T02551052  RH  013%=      5-min Rain = 0
KSP2 042203Z 26026KT 25/M05 A2982 RMK A01 T02541054  RH  013%=      5-min Rain = 0
KSP2 042204Z 24023G29KT 25/M05 A2982 RMK A01 T02521054  RH  013%=      5-min Rain = 0
KSP2 042205Z 25023G29KT 25/M05 A2982 RMK A01 T02511053  RH  013%=      5-min Rain = 0
KSP2 042206Z 25020G25KT 25/M05 A2982 RMK A01 T02501054  RH  013%=      5-min Rain = 0
KSP2 042207Z 26020G27KT 25/M06 A2982 RMK A01 T02471058  RH  013%=      5-min Rain = 0
KSP2 042208Z 27019G25KT 25/M06 A2982 RMK A01 T02461056  RH  013%=      5-min Rain = 0
KSP2 042209Z 25026G32KT 25/M05 A2982 RMK A01 T02481054  RH  013%=      5-min Rain = 0
KSP2 042210Z 25024G29KT 25/M06 A2982 RMK A01 T02471056  RH  013%=      5-min Rain = 0
KSP2 042211Z 25020KT 25/M06 A2982 RMK A01 T02451057  RH  013%=      5-min Rain = 0
KSP2 042212Z 26020G25KT 24/M06 A2982 RMK A01 T02441058  RH  013%=      5-min Rain = 0
KSP2 042213Z 25023G30KT 24/M06 A2982 RMK A01 T02431058  RH  013%=      5-min Rain = 0
KSP2 042214Z 25022KT 25/M06 A2982 RMK A01 T02461058  RH  013%=      5-min Rain = 0
KSP2 042215Z 25020G26KT 25/M06 A2982 RMK A01 T02501056  RH  013%=      5-min Rain = 0
KSP2 042216Z 24023G31KT 25/M06 A2982 RMK A01 T02521055  RH  013%=      5-min Rain = 0
KSP2 042217Z 24020KT 25/M06 A2982 RMK A01 T02511055  RH  013%=      5-min Rain = 0
KSP2 042218Z 24021G29KT 25/M05 A2982 RMK A01 T02501053  RH  013%=      5-min Rain = 0
KSP2 042219Z 25028KT 25/M05 A2982 RMK A01 T02491051  RH  013%=      5-min Rain = 0
KSP2 042220Z 25021KT 25/M05 A2982 RMK A01 T02491050  RH  013%=      5-min Rain = 0
KSP2 042221Z 25021G29KT 25/M05 A2982 RMK A01 T02491048  RH  014%=      5-min Rain = 0
KSP2 042222Z 25026KT 25/M05 A2982 RMK A01 T02521053  RH  013%=      5-min Rain = 0
KSP2 042223Z 25024KT 25/M05 A2982 RMK A01 T02531054  RH  013%=      5-min Rain = 0
KSP2 042224Z 25023KT 25/M06 A2982 RMK A01 T02531055  RH  013%=      5-min Rain = 0
KSP2 042225Z 25020G25KT 25/M05 A2982 RMK A01 T02531054  RH  013%=      5-min Rain = 0
KSP2 042226Z 24021KT 25/M05 A2982 RMK A01 T02531054  RH  013%=      5-min Rain = 0
KSP2 042227Z 25021G29KT 25/M06 A2982 RMK A01 T02511056  RH  013%=      5-min Rain = 0
KSP2 042228Z 25022G29KT 25/M06 A2982 RMK A01 T02471059  RH  013%=      5-min Rain = 0
KSP2 042229Z 25024KT 25/M06 A2982 RMK A01 T02451057  RH  013%=      5-min Rain = 0
KSP2 042230Z 25023KT 24/M06 A2982 RMK A01 T02421060  RH  013%=      5-min Rain = 0
KSP2 042231Z 25023KT 24/M06 A2982 RMK A01 T02411063  RH  013%=      5-min Rain = 0
KSP2 042232Z 26023KT 24/M07 A2982 RMK A01 T02401067  RH  012%=      5-min Rain = 0
KSP2 042233Z 26020KT 24/M07 A2982 RMK A01 T02391069  RH  012%=      5-min Rain = 0
KSP2 042234Z 25020KT 24/M07 A2982 RMK A01 T02391070  RH  012%=      5-min Rain = 0
KSP2 042235Z 25022KT 24/M07 A2982 RMK A01 T02381073  RH  012%=      5-min Rain = 0
KSP2 042236Z 26018G23KT 24/M07 A2982 RMK A01 T02391074  RH  012%=      5-min Rain = 0
KSP2 042237Z 26017KT 24/M07 A2982 RMK A01 T02421072  RH  012%=      5-min Rain = 0
KSP2 042238Z 25020G25KT 24/M07 A2982 RMK A01 T02441071  RH  012%=      5-min Rain = 0
KSP2 042239Z 26021KT 25/M07 A2982 RMK A01 T02471068  RH  012%=      5-min Rain = 0
KSP2 042240Z 25020KT 25/M07 A2982 RMK A01 T02501066  RH  012%=      5-min Rain = 0
KSP2 042241Z 24019G25KT 25/M07 A2982 RMK A01 T02511067  RH  012%=      5-min Rain = 0
KSP2 042242Z 25025KT 25/M07 A2982 RMK A01 T02511074  RH  011%=      5-min Rain = 0
KSP2 042243Z 26023G28KT 25/M08 A2982 RMK A01 T02501084  RH  010%=      5-min Rain = 0
KSP2 042244Z 26017KT 25/M09 A2982 RMK A01 T02501085  RH  010%=      5-min Rain = 0
KSP2 042245Z 26021KT 25/M08 A2982 RMK A01 T02511082  RH  010%=      5-min Rain = 0
KSP2 042246Z 26020KT 25/M09 A2982 RMK A01 T02511085  RH  010%=      5-min Rain = 0
KSP2 042247Z 26020KT 25/M09 A2982 RMK A01 T02491088  RH  010%=      5-min Rain = 0
KSP2 042248Z 26022G27KT 25/M09 A2982 RMK A01 T02481088  RH  010%=      5-min Rain = 0
KSP2 042249Z 26021KT 25/M09 A2982 RMK A01 T02471090  RH  010%=      5-min Rain = 0
KSP2 042250Z 27022G30KT 25/M09 A2982 RMK A01 T02471089  RH  010%=      5-min Rain = 0
KSP2 042251Z 27022G29KT 25/M09 A2982 RMK A01 T02461093  RH  010%=      5-min Rain = 0
KSP2 042252Z 27021KT 25/M09 A2982 RMK A01 T02451092  RH  010%=      5-min Rain = 0
KSP2 042253Z 28023G28KT 24/M09 A2982 RMK A01 T02441093  RH  010%=      5-min Rain = 0
KSP2 042254Z 27019KT 24/M09 A2982 RMK A01 T02431094  RH  010%=      5-min Rain = 0
KSP2 042255Z 27016KT 24/M09 A2982 RMK A01 T02421093  RH  010%=      5-min Rain = 0
KSP2 042256Z 27019G24KT 24/M09 A2982 RMK A01 T02421093  RH  010%=      5-min Rain = 0
KSP2 042257Z 27022KT 24/M09 A2982 RMK A01 T02421092  RH  010%=      5-min Rain = 0
KSP2 042258Z 28020G25KT 24/M10 A2982 RMK A01 T02411095  RH  010%=      5-min Rain = 0
KSP2 042259Z 27017KT 24/M09 A2983 RMK A01 T02401092  RH  010%=      5-min Rain = 0
KSP2 042300Z 26023KT 24/M09 A2983 RMK A01 T02411092  RH  010%=      5-min Rain = 0
KSP2 042301Z 26022G29KT 24/M10 A2983 RMK A01 T02411095  RH  010%=      5-min Rain = 0
KSP2 042302Z 26023KT 24/M10 A2983 RMK A01 T02401095  RH  010%=      5-min Rain = 0
KSP2 042303Z 26025G30KT 24/M09 A2983 RMK A01 T02401094  RH  010%=      5-min Rain = 0
KSP2 042304Z 26026KT 24/M10 A2983 RMK A01 T02381096  RH  010%=      5-min Rain = 0
KSP2 042305Z 26022G27KT 24/M09 A2983 RMK A01 T02381094  RH  010%=      5-min Rain = 0
KSP2 042306Z 26021G28KT 24/M09 A2983 RMK A01 T02381093  RH  010%=      5-min Rain = 0
KSP2 042307Z 28023KT 24/M09 A2983 RMK A01 T02391091  RH  010%=      5-min Rain = 0
KSP2 042308Z 27021KT 24/M09 A2983 RMK A01 T02371091  RH  011%=      5-min Rain = 0
KSP2 042309Z 26021G27KT 24/M09 A2983 RMK A01 T02371087  RH  011%=      5-min Rain = 0
KSP2 042310Z 26023KT 24/M08 A2983 RMK A01 T02371079  RH  011%=      5-min Rain = 0
KSP2 042311Z 26019G25KT 24/M08 A2983 RMK A01 T02371076  RH  012%=      5-min Rain = 0
KSP2 042312Z 27019G24KT 24/M08 A2983 RMK A01 T02371076  RH  012%=      5-min Rain = 0
KSP2 042313Z 27019G24KT 24/M08 A2983 RMK A01 T02361075  RH  012%=      5-min Rain = 0
KSP2 042314Z 27016G21KT 24/M07 A2983 RMK A01 T02351074  RH  012%=      5-min Rain = 0
KSP2 042315Z 27018G23KT 24/M07 A2983 RMK A01 T02351072  RH  012%=      5-min Rain = 0
KSP2 042316Z 27018KT 23/M07 A2983 RMK A01 T02341072  RH  012%=      5-min Rain = 0
KSP2 042317Z 27016G21KT 23/M07 A2983 RMK A01 T02341068  RH  013%=      5-min Rain = 0
KSP2 042318Z 27017G23KT 23/M06 A2983 RMK A01 T02341062  RH  013%=      5-min Rain = 0
KSP2 042319Z 28022G27KT 23/M06 A2984 RMK A01 T02341059  RH  014%=      5-min Rain = 0
KSP2 042320Z 28020KT 23/M06 A2984 RMK A01 T02321060  RH  014%=      5-min Rain = 0
KSP2 042321Z 28019KT 23/M06 A2984 RMK A01 T02311060  RH  014%=      5-min Rain = 0
KSP2 042322Z 27020KT 23/M06 A2984 RMK A01 T02311061  RH  014%=      5-min Rain = 0
KSP2 042323Z 27018KT 23/M06 A2984 RMK A01 T02301062  RH  014%=      5-min Rain = 0
KSP2 042324Z 27018KT 23/M06 A2984 RMK A01 T02301063  RH  014%=      5-min Rain = 0
KSP2 042325Z 27018G24KT 23/M06 A2984 RMK A01 T02291064  RH  014%=      5-min Rain = 0
KSP2 042326Z 28023KT 23/M07 A2984 RMK A01 T02291065  RH  014%=      5-min Rain = 0
KSP2 042327Z 27017G23KT 23/M07 A2984 RMK A01 T02281066  RH  013%=      5-min Rain = 0
KSP2 042328Z 27021G26KT 23/M07 A2984 RMK A01 T02271067  RH  013%=      5-min Rain = 0
KSP2 042329Z 28021G27KT 23/M07 A2984 RMK A01 T02271068  RH  013%=      5-min Rain = 0
KSP2 042330Z 28023G28KT 23/M07 A2984 RMK A01 T02261070  RH  013%=      5-min Rain = 0
KSP2 042331Z 28021G27KT 23/M07 A2984 RMK A01 T02261072  RH  013%=      5-min Rain = 0
KSP2 042332Z 28020G26KT 23/M07 A2984 RMK A01 T02251073  RH  013%=      5-min Rain = 0
KSP2 042333Z 28021G27KT 23/M07 A2984 RMK A01 T02251073  RH  013%=      5-min Rain = 0
KSP2 042334Z 28020G27KT 23/M08 A2984 RMK A01 T02251075  RH  013%=      5-min Rain = 0
KSP2 042335Z 28018G25KT 22/M08 A2984 RMK A01 T02241076  RH  013%=      5-min Rain = 0
KSP2 042336Z 28020KT 22/M08 A2985 RMK A01 T02241077  RH  013%=      5-min Rain = 0
KSP2 042337Z 28023KT 22/M08 A2985 RMK A01 T02241080  RH  012%=      5-min Rain = 0
KSP2 042338Z 28020G26KT 22/M08 A2985 RMK A01 T02231082  RH  012%=      5-min Rain = 0
KSP2 042339Z 28021G26KT 22/M08 A2985 RMK A01 T02221082  RH  012%=      5-min Rain = 0
KSP2 042340Z 28020KT 22/M08 A2985 RMK A01 T02221082  RH  012%=      5-min Rain = 0
KSP2 042341Z 28019G24KT 22/M08 A2985 RMK A01 T02221082  RH  012%=      5-min Rain = 0
KSP2 042342Z 28020KT 22/M08 A2984 RMK A01 T02221081  RH  012%=      5-min Rain = 0
KSP2 042343Z 28020KT 22/M08 A2985 RMK A01 T02211083  RH  012%=      5-min Rain = 0
KSP2 042344Z 28020KT 22/M08 A2985 RMK A01 T02211083  RH  012%=      5-min Rain = 0
KSP2 042345Z 28020G25KT 22/M08 A2985 RMK A01 T02201083  RH  012%=      5-min Rain = 0
KSP2 042346Z 29021G26KT 22/M08 A2985 RMK A01 T02201082  RH  012%=      5-min Rain = 0
KSP2 042347Z 29019G25KT 22/M08 A2985 RMK A01 T02201082  RH  012%=      5-min Rain = 0
KSP2 042348Z 28019G25KT 22/M08 A2985 RMK A01 T02191082  RH  013%=      5-min Rain = 0
KSP2 042349Z 28022G30KT 22/M08 A2985 RMK A01 T02191082  RH  013%=      5-min Rain = 0
KSP2 042350Z 29022KT 22/M08 A2985 RMK A01 T02191083  RH  013%=      5-min Rain = 0
KSP2 042351Z 29018KT 22/M08 A2985 RMK A01 T02181083  RH  013%=      5-min Rain = 0
KSP2 042352Z 29017G23KT 22/M08 A2985 RMK A01 T02181082  RH  013%=      5-min Rain = 0
KSP2 042353Z 29018KT 22/M08 A2985 RMK A01 T02171082  RH  013%=      5-min Rain = 0
KSP2 042354Z 28018KT 22/M08 A2985 RMK A01 T02171082  RH  013%=      5-min Rain = 0
KSP2 042355Z 28015G20KT 22/M08 A2985 RMK A01 T02171079  RH  013%=      5-min Rain = 0
KSP2 042356Z 27016G21KT 22/M08 A2985 RMK A01 T02161078  RH  013%=      5-min Rain = 0
KSP2 042357Z 27016G21KT 22/M08 A2985 RMK A01 T02151079  RH  013%=      5-min Rain = 0
KSP2 042358Z 27023KT 22/M08 A2985 RMK A01 T02151082  RH  013%=      5-min Rain = 0
KSP2 042359Z 27020KT 22/M08 A2985 RMK A01 T02151084  RH  013%=      5-min Rain = 0
KSP2 050000Z 27020KT 22/M08 A2985 RMK A01 T02151084  RH  013%=      5-min Rain = 0
KSP2 050001Z 27017KT 22/M08 A2985 RMK A01 T02151084  RH  013%=      5-min Rain = 0
KSP2 050002Z 27020KT 21/M08 A2985 RMK A01 T02141083  RH  013%=      5-min Rain = 0
KSP2 050003Z 27020KT 21/M08 A2985 RMK A01 T02131084  RH  013%=      5-min Rain = 0
KSP2 050004Z 28020KT 21/M09 A2985 RMK A01 T02131086  RH  013%=      5-min Rain = 0
KSP2 050005Z 28016KT 21/M09 A2986 RMK A01 T02121085  RH  013%=      5-min Rain = 0
KSP2 050006Z 28018KT 21/M09 A2986 RMK A01 T02111086  RH  013%=      5-min Rain = 0
KSP2 050007Z 28020KT 21/M09 A2985 RMK A01 T02101087  RH  013%=      5-min Rain = 0
KSP2 050008Z 28018KT 21/M09 A2986 RMK A01 T02101089  RH  013%=      5-min Rain = 0
KSP2 050009Z 27019KT 21/M09 A2986 RMK A01 T02091091  RH  012%=      5-min Rain = 0
KSP2 050010Z 28016G21KT 21/M09 A2986 RMK A01 T02091094  RH  012%=      5-min Rain = 0
KSP2 050011Z 28019G24KT 21/M10 A2986 RMK A01 T02081096  RH  012%=      5-min Rain = 0
KSP2 050012Z 28017KT 21/M10 A2986 RMK A01 T02081095  RH  012%=      5-min Rain = 0
KSP2 050013Z 28016G21KT 21/M10 A2986 RMK A01 T02081095  RH  012%=      5-min Rain = 0
KSP2 050014Z 29017G22KT 21/M10 A2986 RMK A01 T02071096  RH  012%=      5-min Rain = 0
KSP2 050015Z 28017G22KT 21/M10 A2986 RMK A01 T02071097  RH  012%=      5-min Rain = 0
KSP2 050016Z 28017KT 21/M10 A2986 RMK A01 T02061097  RH  012%=      5-min Rain = 0
KSP2 050017Z 28018G25KT 21/M10 A2986 RMK A01 T02061098  RH  012%=      5-min Rain = 0
KSP2 050018Z 28018G23KT 21/M10 A2986 RMK A01 T02051099  RH  012%=      5-min Rain = 0
KSP2 050019Z 28015G20KT 21/M10 A2986 RMK A01 T02051098  RH  012%=      5-min Rain = 0
KSP2 050020Z 28013KT 20/M10 A2986 RMK A01 T02031097  RH  012%=      5-min Rain = 0
KSP2 050021Z 28014KT 20/M10 A2986 RMK A01 T02021096  RH  013%=      5-min Rain = 0
KSP2 050022Z 28015KT 20/M10 A2986 RMK A01 T02011095  RH  013%=      5-min Rain = 0
KSP2 050023Z 28015KT 20/M09 A2986 RMK A01 T02001094  RH  013%=      5-min Rain = 0
KSP2 050024Z 28014KT 20/M09 A2987 RMK A01 T01991094  RH  013%=      5-min Rain = 0
KSP2 050025Z 28014KT 20/M09 A2987 RMK A01 T01981094  RH  013%=      5-min Rain = 0
KSP2 050026Z 28020KT 20/M10 A2987 RMK A01 T01981095  RH  013%=      5-min Rain = 0
KSP2 050027Z 28017G23KT 20/M10 A2987 RMK A01 T01971097  RH  013%=      5-min Rain = 0
KSP2 050028Z 28017KT 20/M10 A2987 RMK A01 T01971098  RH  013%=      5-min Rain = 0
KSP2 050029Z 28014KT 20/M10 A2987 RMK A01 T01961099  RH  013%=      5-min Rain = 0
KSP2 050030Z 28014G19KT 19/M10 A2987 RMK A01 T01941099  RH  013%=      5-min Rain = 0
KSP2 050031Z 28018KT 19/M10 A2987 RMK A01 T01931100  RH  013%=      5-min Rain = 0
KSP2 050032Z 28016KT 19/M10 A2987 RMK A01 T01931101  RH  013%=      5-min Rain = 0
KSP2 050033Z 28016KT 19/M10 A2987 RMK A01 T01931101  RH  013%=      5-min Rain = 0
KSP2 050034Z 28015G21KT 19/M10 A2987 RMK A01 T01921102  RH  013%=      5-min Rain = 0
KSP2 050035Z 28017KT 19/M10 A2987 RMK A01 T01911103  RH  013%=      5-min Rain = 0
KSP2 050036Z 28014KT 19/M10 A2987 RMK A01 T01901103  RH  013%=      5-min Rain = 0
KSP2 050037Z 28015KT 19/M10 A2987 RMK A01 T01891103  RH  013%=      5-min Rain = 0
KSP2 050038Z 28016KT 19/M10 A2987 RMK A01 T01881103  RH  013%=      5-min Rain = 0
KSP2 050039Z 28015G20KT 19/M10 A2987 RMK A01 T01871103  RH  013%=      5-min Rain = 0
KSP2 050040Z 28016G21KT 19/M10 A2987 RMK A01 T01851104  RH  013%=      5-min Rain = 0
KSP2 050041Z 28017G22KT 19/M10 A2987 RMK A01 T01851104  RH  013%=      5-min Rain = 0
KSP2 050042Z 28017KT 18/M10 A2987 RMK A01 T01841104  RH  013%=      5-min Rain = 0
KSP2 050043Z 28016KT 18/M10 A2988 RMK A01 T01841104  RH  013%=      5-min Rain = 0
KSP2 050044Z 28017KT 18/M10 A2988 RMK A01 T01831104  RH  013%=      5-min Rain = 0
KSP2 050045Z 28017KT 18/M10 A2988 RMK A01 T01831103  RH  013%=      5-min Rain = 0
KSP2 050046Z 28016KT 18/M10 A2988 RMK A01 T01821103  RH  013%=      5-min Rain = 0
KSP2 050047Z 28015KT 18/M10 A2988 RMK A01 T01811103  RH  013%=      5-min Rain = 0
KSP2 050048Z 28015KT 18/M10 A2988 RMK A01 T01811103  RH  014%=      5-min Rain = 0
KSP2 050049Z 28014KT 18/M10 A2988 RMK A01 T01801103  RH  014%=      5-min Rain = 0
KSP2 050050Z 28014KT 18/M10 A2988 RMK A01 T01791102  RH  014%=      5-min Rain = 0
KSP2 050051Z 28014KT 18/M10 A2988 RMK A01 T01781102  RH  014%=      5-min Rain = 0
KSP2 050052Z 28014KT 18/M10 A2988 RMK A01 T01771102  RH  014%=      5-min Rain = 0
KSP2 050053Z 28014KT 18/M10 A2988 RMK A01 T01761102  RH  014%=      5-min Rain = 0
KSP2 050054Z 28014KT 18/M10 A2988 RMK A01 T01751102  RH  014%=      5-min Rain = 0
KSP2 050055Z 28014KT 17/M10 A2988 RMK A01 T01731101  RH  014%=      5-min Rain = 0
KSP2 050056Z 28014KT 17/M10 A2988 RMK A01 T01731101  RH  014%=      5-min Rain = 0
KSP2 050057Z 27014KT 17/M10 A2988 RMK A01 T01721101  RH  014%=      5-min Rain = 0
KSP2 050058Z 28014KT 17/M10 A2988 RMK A01 T01721101  RH  015%=      5-min Rain = 0
KSP2 050059Z 28013KT 17/M10 A2988 RMK A01 T01721101  RH  015%=      5-min Rain = 0
KSP2 050100Z 28015KT 17/M10 A2988 RMK A01 T01711101  RH  015%=      5-min Rain = 0
KSP2 050101Z 28015KT 17/M10 A2988 RMK A01 T01701101  RH  015%=      5-min Rain = 0
KSP2 050102Z 28014KT 17/M10 A2988 RMK A01 T01701101  RH  015%=      5-min Rain = 0
KSP2 050103Z 28013KT 17/M10 A2988 RMK A01 T01691101  RH  015%=      5-min Rain = 0
KSP2 050104Z 28015KT 17/M10 A2988 RMK A01 T01681102  RH  015%=      5-min Rain = 0
KSP2 050105Z 28015KT 17/M10 A2988 RMK A01 T01681103  RH  015%=      5-min Rain = 0
KSP2 050106Z 28015KT 17/M10 A2988 RMK A01 T01701103  RH  014%=      5-min Rain = 0
KSP2 050107Z 28013KT 17/M10 A2988 RMK A01 T01701103  RH  014%=      5-min Rain = 0
KSP2 050108Z 28014KT 17/M10 A2988 RMK A01 T01691104  RH  014%=      5-min Rain = 0
KSP2 050109Z 28015G20KT 17/M10 A2988 RMK A01 T01681104  RH  015%=      5-min Rain = 0
KSP2 050110Z 28015G20KT 17/M10 A2988 RMK A01 T01681104  RH  015%=      5-min Rain = 0
KSP2 050111Z 28015KT 17/M10 A2988 RMK A01 T01661103  RH  015%=      5-min Rain = 0
KSP2 050112Z 28016KT 17/M10 A2988 RMK A01 T01661103  RH  015%=      5-min Rain = 0
KSP2 050113Z 28016KT 17/M10 A2988 RMK A01 T01661103  RH  015%=      5-min Rain = 0
KSP2 050114Z 28016KT 17/M10 A2988 RMK A01 T01671103  RH  015%=      5-min Rain = 0
KSP2 050115Z 28014G19KT 17/M10 A2988 RMK A01 T01671103  RH  015%=      5-min Rain = 0
KSP2 050116Z 28015KT 17/M10 A2989 RMK A01 T01661102  RH  015%=      5-min Rain = 0
KSP2 050117Z 28014KT 17/M10 A2989 RMK A01 T01661102  RH  015%=      5-min Rain = 0
KSP2 050118Z 28013KT 17/M10 A2989 RMK A01 T01651102  RH  015%=      5-min Rain = 0
KSP2 050119Z 28014KT 16/M10 A2989 RMK A01 T01631102  RH  015%=      5-min Rain = 0
KSP2 050120Z 28015KT 16/M10 A2989 RMK A01 T01631102  RH  015%=      5-min Rain = 0
KSP2 050121Z 28014G19KT 16/M10 A2989 RMK A01 T01621101  RH  015%=      5-min Rain = 0
KSP2 050122Z 28014KT 16/M10 A2989 RMK A01 T01611101  RH  016%=      5-min Rain = 0
KSP2 050123Z 28015KT 16/M10 A2989 RMK A01 T01611100  RH  016%=      5-min Rain = 0
KSP2 050124Z 28017KT 16/M10 A2989 RMK A01 T01621099  RH  016%=      5-min Rain = 0
KSP2 050125Z 28017KT 16/M10 A2989 RMK A01 T01631098  RH  016%=      5-min Rain = 0
KSP2 050126Z 28016KT 16/M10 A2989 RMK A01 T01641098  RH  016%=      5-min Rain = 0
KSP2 050127Z 28015KT 16/M10 A2989 RMK A01 T01641098  RH  016%=      5-min Rain = 0
KSP2 050128Z 28016KT 16/M10 A2989 RMK A01 T01631098  RH  016%=      5-min Rain = 0
KSP2 050129Z 28016KT 16/M10 A2989 RMK A01 T01621097  RH  016%=      5-min Rain = 0
KSP2 050130Z 28016KT 16/M10 A2989 RMK A01 T01621097  RH  016%=      5-min Rain = 0
KSP2 050131Z 28016G21KT 16/M10 A2989 RMK A01 T01621097  RH  016%=      5-min Rain = 0
KSP2 050132Z 28017KT 16/M10 A2989 RMK A01 T01621097  RH  016%=      5-min Rain = 0
KSP2 050133Z 28016KT 16/M10 A2989 RMK A01 T01621096  RH  016%=      5-min Rain = 0
KSP2 050134Z 28015KT 16/M10 A2989 RMK A01 T01621096  RH  016%=      5-min Rain = 0
KSP2 050135Z 28015KT 16/M10 A2989 RMK A01 T01621095  RH  016%=      5-min Rain = 0
KSP2 050136Z 28015KT 16/M10 A2989 RMK A01 T01621096  RH  016%=      5-min Rain = 0
KSP2 050137Z 28014KT 16/M10 A2989 RMK A01 T01621096  RH  016%=      5-min Rain = 0
KSP2 050138Z 28013KT 16/M10 A2989 RMK A01 T01601096  RH  016%=      5-min Rain = 0
KSP2 050139Z 28013KT 16/M10 A2989 RMK A01 T01601095  RH  016%=      5-min Rain = 0
KSP2 050140Z 27012KT 16/M10 A2989 RMK A01 T01591095  RH  017%=      5-min Rain = 0
KSP2 050141Z 27013KT 16/M10 A2989 RMK A01 T01571095  RH  017%=      5-min Rain = 0
KSP2 050142Z 27012KT 16/M09 A2989 RMK A01 T01571094  RH  017%=      5-min Rain = 0
KSP2 050143Z 27013KT 16/M09 A2989 RMK A01 T01561094  RH  017%=      5-min Rain = 0
KSP2 050144Z 27012KT 16/M09 A2989 RMK A01 T01551094  RH  017%=      5-min Rain = 0
KSP2 050145Z 27014KT 16/M09 A2989 RMK A01 T01561094  RH  017%=      5-min Rain = 0
KSP2 050146Z 27014KT 16/M09 A2989 RMK A01 T01581094  RH  017%=      5-min Rain = 0
KSP2 050147Z 27012KT 16/M09 A2989 RMK A01 T01601093  RH  017%=      5-min Rain = 0
KSP2 050148Z 26012KT 16/M09 A2989 RMK A01 T01611093  RH  017%=      5-min Rain = 0
KSP2 050149Z 26013KT 16/M09 A2989 RMK A01 T01611093  RH  017%=      5-min Rain = 0
KSP2 050150Z 26013KT 16/M09 A2989 RMK A01 T01611094  RH  016%=      5-min Rain = 0
KSP2 050151Z 26013KT 16/M09 A2989 RMK A01 T01601094  RH  017%=      5-min Rain = 0
KSP2 050152Z 26014KT 16/M09 A2989 RMK A01 T01601093  RH  017%=      5-min Rain = 0
KSP2 050153Z 26014KT 16/M09 A2989 RMK A01 T01591093  RH  017%=      5-min Rain = 0
KSP2 050154Z 26013KT 16/M09 A299 RMK A01 T01581093  RH  017%=      5-min Rain = 0
KSP2 050155Z 27014KT 16/M09 A299 RMK A01 T01571093  RH  017%=      5-min Rain = 0
KSP2 050156Z 26014KT 16/M09 A299 RMK A01 T01561093  RH  017%=      5-min Rain = 0
KSP2 050157Z 26014KT 16/M09 A299 RMK A01 T01561093  RH  017%=      5-min Rain = 0
KSP2 050158Z 26013KT 15/M09 A299 RMK A01 T01541093  RH  017%=      5-min Rain = 0
KSP2 050159Z 26012KT 15/M09 A299 RMK A01 T01531093  RH  017%=      5-min Rain = 0
KSP2 050200Z 26013KT 15/M09 A299 RMK A01 T01521093  RH  018%=      5-min Rain = 0
KSP2 050201Z 26011KT 15/M09 A299 RMK A01 T01511094  RH  018%=      5-min Rain = 0
KSP2 050202Z 26012KT 15/M09 A299 RMK A01 T01501094  RH  018%=      5-min Rain = 0
KSP2 050203Z 26012KT 15/M09 A299 RMK A01 T01481094  RH  018%=      5-min Rain = 0
KSP2 050204Z 26011KT 15/M09 A299 RMK A01 T01481094  RH  018%=      5-min Rain = 0
KSP2 050205Z 26011KT 15/M09 A299 RMK A01 T01481093  RH  018%=      5-min Rain = 0
KSP2 050206Z 25012KT 15/M09 A299 RMK A01 T01471093  RH  018%=      5-min Rain = 0
KSP2 050207Z 26012KT 15/M09 A299 RMK A01 T01461094  RH  018%=      5-min Rain = 0
KSP2 050208Z 25013KT 15/M09 A299 RMK A01 T01471093  RH  018%=      5-min Rain = 0
KSP2 050209Z 25013KT 15/M09 A299 RMK A01 T01471093  RH  018%=      5-min Rain = 0
KSP2 050210Z 26013KT 15/M09 A299 RMK A01 T01471093  RH  018%=      5-min Rain = 0
KSP2 050211Z 26014KT 15/M09 A299 RMK A01 T01451093  RH  018%=      5-min Rain = 0
KSP2 050212Z 26014KT 15/M09 A299 RMK A01 T01451092  RH  018%=      5-min Rain = 0
KSP2 050213Z 26013KT 15/M09 A299 RMK A01 T01451092  RH  019%=      5-min Rain = 0
KSP2 050214Z 26013KT 15/M09 A299 RMK A01 T01461091  RH  019%=      5-min Rain = 0
KSP2 050215Z 26013KT 15/M09 A299 RMK A01 T01471090  RH  019%=      5-min Rain = 0
KSP2 050216Z 26014KT 15/M09 A299 RMK A01 T01461090  RH  019%=      5-min Rain = 0
KSP2 050217Z 27013KT 15/M09 A299 RMK A01 T01471090  RH  019%=      5-min Rain = 0
KSP2 050218Z 26013KT 15/M09 A299 RMK A01 T01471090  RH  019%=      5-min Rain = 0
KSP2 050219Z 26012KT 15/M09 A299 RMK A01 T01471090  RH  019%=      5-min Rain = 0
KSP2 050220Z 26011KT 15/M09 A299 RMK A01 T01471089  RH  019%=      5-min Rain = 0
KSP2 050221Z 26013KT 15/M09 A299 RMK A01 T01461089  RH  019%=      5-min Rain = 0
KSP2 050222Z 26013KT 15/M09 A299 RMK A01 T01461089  RH  019%=      5-min Rain = 0
KSP2 050223Z 26013KT 15/M09 A299 RMK A01 T01451089  RH  019%=      5-min Rain = 0
KSP2 050224Z 26012KT 15/M09 A2991 RMK A01 T01461088  RH  019%=      5-min Rain = 0
KSP2 050225Z 26013KT 15/M09 A2991 RMK A01 T01451089  RH  019%=      5-min Rain = 0
KSP2 050226Z 26014KT 15/M09 A2991 RMK A01 T01451088  RH  019%=      5-min Rain = 0
KSP2 050227Z 26012KT 15/M09 A2991 RMK A01 T01451088  RH  019%=      5-min Rain = 0
KSP2 050228Z 26013KT 15/M09 A2991 RMK A01 T01451087  RH  019%=      5-min Rain = 0
KSP2 050229Z 26013KT 14/M09 A2991 RMK A01 T01441088  RH  019%=      5-min Rain = 0
KSP2 050230Z 26012KT 14/M09 A2991 RMK A01 T01441088  RH  019%=      5-min Rain = 0
KSP2 050231Z 27012KT 14/M09 A2991 RMK A01 T01441087  RH  019%=      5-min Rain = 0
KSP2 050232Z 27012KT 14/M09 A2991 RMK A01 T01441088  RH  019%=      5-min Rain = 0
KSP2 050233Z 26011KT 14/M09 A2991 RMK A01 T01421088  RH  019%=      5-min Rain = 0
KSP2 050234Z 27011KT 14/M09 A2991 RMK A01 T01411088  RH  020%=      5-min Rain = 0
KSP2 050235Z 26012KT 14/M09 A2991 RMK A01 T01411087  RH  020%=      5-min Rain = 0
KSP2 050236Z 26011KT 14/M09 A2991 RMK A01 T01401087  RH  020%=      5-min Rain = 0
KSP2 050237Z 26011KT 14/M09 A2991 RMK A01 T01401087  RH  020%=      5-min Rain = 0
KSP2 050238Z 26012KT 14/M09 A2991 RMK A01 T01391087  RH  020%=      5-min Rain = 0
KSP2 050239Z 26012KT 14/M09 A2991 RMK A01 T01381087  RH  020%=      5-min Rain = 0
KSP2 050240Z 26011KT 14/M09 A2991 RMK A01 T01381087  RH  020%=      5-min Rain = 0
KSP2 050241Z 26011KT 14/M09 A2991 RMK A01 T01371087  RH  020%=      5-min Rain = 0
KSP2 050242Z 26011KT 14/M09 A2991 RMK A01 T01361087  RH  020%=      5-min Rain = 0
KSP2 050243Z 27011KT 14/M09 A2992 RMK A01 T01351087  RH  021%=      5-min Rain = 0
KSP2 050244Z 27010KT 13/M09 A2992 RMK A01 T01341087  RH  021%=      5-min Rain = 0
KSP2 050245Z 27010KT 13/M09 A2992 RMK A01 T01321086  RH  021%=      5-min Rain = 0
KSP2 050246Z 27011KT 13/M09 A2992 RMK A01 T01311086  RH  021%=      5-min Rain = 0
KSP2 050247Z 27012KT 13/M09 A2992 RMK A01 T01301086  RH  021%=      5-min Rain = 0
KSP2 050248Z 27012KT 13/M09 A2992 RMK A01 T01311085  RH  022%=      5-min Rain = 0
KSP2 050249Z 27011KT 13/M08 A2992 RMK A01 T01321084  RH  021%=      5-min Rain = 0
KSP2 050250Z 27013KT 13/M08 A2992 RMK A01 T01331084  RH  021%=      5-min Rain = 0
KSP2 050251Z 26013KT 13/M08 A2992 RMK A01 T01341083  RH  021%=      5-min Rain = 0
KSP2 050252Z 27012KT 13/M08 A2992 RMK A01 T01341083  RH  021%=      5-min Rain = 0
KSP2 050253Z 27013KT 13/M08 A2992 RMK A01 T01341083  RH  021%=      5-min Rain = 0
KSP2 050254Z 27012KT 14/M08 A2992 RMK A01 T01351082  RH  021%=      5-min Rain = 0
KSP2 050255Z 27011KT 14/M08 A2992 RMK A01 T01361081  RH  021%=      5-min Rain = 0
KSP2 050256Z 27011KT 14/M08 A2992 RMK A01 T01361081  RH  021%=      5-min Rain = 0
KSP2 050257Z 27010KT 14/M08 A2992 RMK A01 T01351081  RH  021%=      5-min Rain = 0
KSP2 050258Z 27010KT 13/M08 A2992 RMK A01 T01341081  RH  022%=      5-min Rain = 0
KSP2 050259Z 27008KT 13/M08 A2992 RMK A01 T01331081  RH  022%=      5-min Rain = 0
KSP2 050300Z 27009KT 13/M08 A2992 RMK A01 T01311081  RH  022%=      5-min Rain = 0
KSP2 050301Z 26009KT 13/M08 A2992 RMK A01 T01301082  RH  022%=      5-min Rain = 0
KSP2 050302Z 26010KT 13/M08 A2992 RMK A01 T01281083  RH  022%=      5-min Rain = 0
KSP2 050303Z 27010KT 13/M08 A2992 RMK A01 T01271083  RH  022%=      5-min Rain = 0
KSP2 050304Z 26011KT 13/M08 A2992 RMK A01 T01261083  RH  023%=      5-min Rain = 0
KSP2 050305Z 27012KT 13/M08 A2992 RMK A01 T01251082  RH  023%=      5-min Rain = 0
KSP2 050306Z 27012KT 13/M08 A2992 RMK A01 T01251082  RH  023%=      5-min Rain = 0
KSP2 050307Z 27011KT 13/M08 A2992 RMK A01 T01251081  RH  023%=      5-min Rain = 0
KSP2 050308Z 27011KT 12/M08 A2992 RMK A01 T01241081  RH  023%=      5-min Rain = 0
KSP2 050309Z 27010KT 13/M08 A2992 RMK A01 T01251080  RH  023%=      5-min Rain = 0
KSP2 050310Z 27010KT 12/M08 A2992 RMK A01 T01241080  RH  023%=      5-min Rain = 0
KSP2 050311Z 28009KT 12/M08 A2992 RMK A01 T01241080  RH  023%=      5-min Rain = 0
KSP2 050312Z 28009KT 12/M08 A2992 RMK A01 T01231080  RH  023%=      5-min Rain = 0
KSP2 050313Z 27010KT 12/M08 A2992 RMK A01 T01211080  RH  024%=      5-min Rain = 0
KSP2 050314Z 28010KT 12/M08 A2992 RMK A01 T01211080  RH  024%=      5-min Rain = 0
KSP2 050315Z 28009KT 12/M08 A2992 RMK A01 T01211079  RH  024%=      5-min Rain = 0
KSP2 050316Z 28010KT 12/M08 A2993 RMK A01 T01211079  RH  024%=      5-min Rain = 0
KSP2 050317Z 28010KT 12/M08 A2993 RMK A01 T01201079  RH  024%=      5-min Rain = 0
KSP2 050318Z 28009KT 12/M08 A2993 RMK A01 T01191079  RH  024%=      5-min Rain = 0
KSP2 050319Z 28010KT 12/M08 A2993 RMK A01 T01191079  RH  024%=      5-min Rain = 0
KSP2 050320Z 28010KT 12/M08 A2993 RMK A01 T01191078  RH  024%=      5-min Rain = 0
KSP2 050321Z 28011KT 12/M08 A2993 RMK A01 T01181078  RH  025%=      5-min Rain = 0
KSP2 050322Z 28010KT 12/M08 A2993 RMK A01 T01181078  RH  025%=      5-min Rain = 0
KSP2 050323Z 28010KT 12/M08 A2993 RMK A01 T01181078  RH  025%=      5-min Rain = 0
KSP2 050324Z 28010KT 12/M08 A2993 RMK A01 T01171078  RH  025%=      5-min Rain = 0
KSP2 050325Z 28009KT 12/M08 A2992 RMK A01 T01151078  RH  025%=      5-min Rain = 0
KSP2 050326Z 28010KT 11/M08 A2992 RMK A01 T01141078  RH  025%=      5-min Rain = 0
KSP2 050327Z 28010KT 11/M08 A2992 RMK A01 T01141077  RH  025%=      5-min Rain = 0
KSP2 050328Z 28009KT 11/M08 A2992 RMK A01 T01141077  RH  026%=      5-min Rain = 0
KSP2 050329Z 28010KT 11/M08 A2992 RMK A01 T01141076  RH  026%=      5-min Rain = 0
KSP2 050330Z 28009KT 11/M08 A2992 RMK A01 T01141075  RH  026%=      5-min Rain = 0
KSP2 050331Z 28010KT 11/M08 A2992 RMK A01 T01141075  RH  026%=      5-min Rain = 0
KSP2 050332Z 28010KT 11/M07 A2992 RMK A01 T01131074  RH  026%=      5-min Rain = 0
KSP2 050333Z 28010KT 11/M07 A2992 RMK A01 T01131074  RH  026%=      5-min Rain = 0
KSP2 050334Z 28010KT 11/M07 A2992 RMK A01 T01131073  RH  026%=      5-min Rain = 0
KSP2 050335Z 28010KT 11/M07 A2992 RMK A01 T01131073  RH  027%=      5-min Rain = 0
KSP2 050336Z 28011KT 11/M07 A2992 RMK A01 T01131071  RH  027%=      5-min Rain = 0
KSP2 050337Z 28010KT 11/M07 A2992 RMK A01 T01141070  RH  027%=      5-min Rain = 0
KSP2 050338Z 28011KT 12/M07 A2992 RMK A01 T01151070  RH  027%=      5-min Rain = 0
KSP2 050339Z 29012KT 12/M07 A2992 RMK A01 T01161069  RH  027%=      5-min Rain = 0
KSP2 050340Z 29013KT 12/M07 A2992 RMK A01 T01181067  RH  027%=      5-min Rain = 0
KSP2 050341Z 29011KT 12/M07 A2992 RMK A01 T01201066  RH  027%=      5-min Rain = 0
KSP2 050342Z 29014KT 12/M07 A2992 RMK A01 T01211066  RH  027%=      5-min Rain = 0
KSP2 050343Z 29013KT 12/M07 A2992 RMK A01 T01211065  RH  027%=      5-min Rain = 0
KSP2 050344Z 29011KT 12/M07 A2992 RMK A01 T01221065  RH  027%=      5-min Rain = 0
KSP2 050345Z 29012KT 12/M06 A2992 RMK A01 T01221064  RH  027%=      5-min Rain = 0
KSP2 050346Z 29010KT 12/M06 A2992 RMK A01 T01221063  RH  027%=      5-min Rain = 0
KSP2 050347Z 29012KT 12/M06 A2992 RMK A01 T01221063  RH  027%=      5-min Rain = 0
KSP2 050348Z 29011KT 12/M06 A2992 RMK A01 T01221062  RH  027%=      5-min Rain = 0
KSP2 050349Z 29011KT 12/M06 A2992 RMK A01 T01231061  RH  027%=      5-min Rain = 0
KSP2 050350Z 29011KT 12/M06 A2992 RMK A01 T01231060  RH  027%=      5-min Rain = 0
KSP2 050351Z 29014KT 12/M06 A2992 RMK A01 T01231059  RH  028%=      5-min Rain = 0
KSP2 050352Z 29010KT 12/M06 A2992 RMK A01 T01241058  RH  027%=      5-min Rain = 0
KSP2 050353Z 29013KT 12/M06 A2992 RMK A01 T01241058  RH  028%=      5-min Rain = 0
KSP2 050354Z 29012KT 12/M06 A2992 RMK A01 T01241058  RH  028%=      5-min Rain = 0
KSP2 050355Z 29012KT 12/M06 A2992 RMK A01 T01241057  RH  028%=      5-min Rain = 0
KSP2 050356Z 29013KT 13/M06 A2992 RMK A01 T01251056  RH  028%=      5-min Rain = 0
KSP2 050357Z 29011KT 13/M06 A2992 RMK A01 T01261055  RH  028%=      5-min Rain = 0
KSP2 050358Z 29011KT 13/M06 A2992 RMK A01 T01251056  RH  028%=      5-min Rain = 0
KSP2 050359Z 29011KT 13/M06 A2992 RMK A01 T01251056  RH  028%=      5-min Rain = 0
KSP2 050400Z 29011KT 12/M06 A2992 RMK A01 T01231056  RH  028%=      5-min Rain = 0
KSP2 050401Z 29012KT 12/M06 A2992 RMK A01 T01231056  RH  028%=      5-min Rain = 0
KSP2 050402Z 29010KT 12/M06 A2992 RMK A01 T01231055  RH  028%=      5-min Rain = 0
KSP2 050403Z 28010KT 12/M06 A2992 RMK A01 T01221055  RH  029%=      5-min Rain = 0
KSP2 050404Z 28010KT 12/M06 A2992 RMK A01 T01201055  RH  029%=      5-min Rain = 0
KSP2 050405Z 28011KT 12/M06 A2992 RMK A01 T01201055  RH  029%=      5-min Rain = 0
KSP2 050406Z 28010KT 12/M06 A2992 RMK A01 T01201055  RH  029%=      5-min Rain = 0
KSP2 050407Z 27011KT 12/M06 A2992 RMK A01 T01181056  RH  029%=      5-min Rain = 0
KSP2 050408Z 27011KT 12/M06 A2992 RMK A01 T01181055  RH  029%=      5-min Rain = 0
KSP2 050409Z 27010KT 12/M06 A2992 RMK A01 T01171055  RH  029%=      5-min Rain = 0
KSP2 050410Z 28010KT 12/M06 A2992 RMK A01 T01171055  RH  030%=      5-min Rain = 0
KSP2 050411Z 28010KT 12/M06 A2992 RMK A01 T01161056  RH  030%=      5-min Rain = 0
KSP2 050412Z 27010KT 11/M06 A2992 RMK A01 T01141056  RH  030%=      5-min Rain = 0
KSP2 050413Z 27009KT 11/M06 A2992 RMK A01 T01141056  RH  030%=      5-min Rain = 0
KSP2 050414Z 27009KT 11/M06 A2992 RMK A01 T01121057  RH  030%=      5-min Rain = 0
KSP2 050415Z 28010KT 11/M06 A2992 RMK A01 T01111057  RH  030%=      5-min Rain = 0
KSP2 050416Z 28009KT 11/M06 A2992 RMK A01 T01101056  RH  031%=      5-min Rain = 0
KSP2 050417Z 28008KT 11/M06 A2992 RMK A01 T01101056  RH  031%=      5-min Rain = 0
KSP2 050418Z 28009KT 11/M06 A2992 RMK A01 T01091056  RH  031%=      5-min Rain = 0
KSP2 050419Z 28009KT 11/M06 A2992 RMK A01 T01081056  RH  031%=      5-min Rain = 0
KSP2 050420Z 27009KT 11/M06 A2992 RMK A01 T01071056  RH  031%=      5-min Rain = 0
KSP2 050421Z 27010KT 11/M06 A2992 RMK A01 T01061056  RH  031%=      5-min Rain = 0
KSP2 050422Z 27009KT 11/M06 A2992 RMK A01 T01051057  RH  032%=      5-min Rain = 0
KSP2 050423Z 27009KT 10/M06 A2992 RMK A01 T01041057  RH  032%=      5-min Rain = 0
KSP2 050424Z 28010KT 10/M06 A2992 RMK A01 T01041056  RH  032%=      5-min Rain = 0
KSP2 050425Z 28010KT 10/M06 A2992 RMK A01 T01031056  RH  032%=      5-min Rain = 0
KSP2 050426Z 28009KT 10/M06 A2992 RMK A01 T01031056  RH  032%=      5-min Rain = 0
KSP2 050427Z 28009KT 10/M06 A2992 RMK A01 T01041056  RH  032%=      5-min Rain = 0
KSP2 050428Z 28011KT 10/M06 A2992 RMK A01 T01031056  RH  032%=      5-min Rain = 0
KSP2 050429Z 28011KT 10/M06 A2992 RMK A01 T01031056  RH  032%=      5-min Rain = 0
KSP2 050430Z 28012KT 10/M06 A2992 RMK A01 T01031055  RH  032%=      5-min Rain = 0
KSP2 050431Z 28011KT 10/M06 A2992 RMK A01 T01041055  RH  032%=      5-min Rain = 0
KSP2 050432Z 28011KT 10/M06 A2992 RMK A01 T01041055  RH  032%=      5-min Rain = 0
KSP2 050433Z 28011KT 10/M05 A2992 RMK A01 T01041054  RH  032%=      5-min Rain = 0
KSP2 050434Z 28011KT 10/M05 A2992 RMK A01 T01041054  RH  032%=      5-min Rain = 0
KSP2 050435Z 28012KT 10/M05 A2992 RMK A01 T01041054  RH  033%=      5-min Rain = 0
KSP2 050436Z 28011KT 10/M05 A2992 RMK A01 T01031053  RH  033%=      5-min Rain = 0
KSP2 050437Z 28011KT 10/M05 A2992 RMK A01 T01031053  RH  033%=      5-min Rain = 0
KSP2 050438Z 28010KT 10/M05 A2992 RMK A01 T01031052  RH  033%=      5-min Rain = 0
KSP2 050439Z 28010KT 10/M05 A2992 RMK A01 T01031052  RH  033%=      5-min Rain = 0
KSP2 050440Z 28011KT 10/M05 A2992 RMK A01 T01031052  RH  033%=      5-min Rain = 0
KSP2 050441Z 28012KT 10/M05 A2992 RMK A01 T01031051  RH  033%=      5-min Rain = 0
KSP2 050442Z 28011KT 10/M05 A2992 RMK A01 T01041050  RH  033%=      5-min Rain = 0
KSP2 050443Z 28011KT 11/M05 A2992 RMK A01 T01051050  RH  033%=      5-min Rain = 0
KSP2 050444Z 28013KT 11/M05 A2992 RMK A01 T01051050  RH  033%=      5-min Rain = 0
KSP2 050445Z 28012KT 11/M05 A2992 RMK A01 T01061050  RH  033%=      5-min Rain = 0
KSP2 050446Z 28011KT 11/M05 A2992 RMK A01 T01061050  RH  033%=      5-min Rain = 0
KSP2 050447Z 28012KT 11/M05 A2992 RMK A01 T01061049  RH  033%=      5-min Rain = 0
KSP2 050448Z 28013KT 11/M05 A2992 RMK A01 T01061049  RH  033%=      5-min Rain = 0
KSP2 050449Z 28012KT 11/M05 A2992 RMK A01 T01061049  RH  033%=      5-min Rain = 0
KSP2 050450Z 28012KT 11/M05 A2992 RMK A01 T01061049  RH  033%=      5-min Rain = 0
KSP2 050451Z 28012KT 11/M05 A2992 RMK A01 T01061049  RH  033%=      5-min Rain = 0
KSP2 050452Z 28012KT 11/M05 A2992 RMK A01 T01061049  RH  033%=      5-min Rain = 0
KSP2 050453Z 28012KT 11/M05 A2992 RMK A01 T01061049  RH  033%=      5-min Rain = 0
KSP2 050454Z 28011KT 11/M05 A2993 RMK A01 T01061049  RH  033%=      5-min Rain = 0
KSP2 050455Z 28011KT 11/M05 A2993 RMK A01 T01051049  RH  034%=      5-min Rain = 0
KSP2 050456Z 28012KT 11/M05 A2993 RMK A01 T01051048  RH  034%=      5-min Rain = 0
KSP2 050457Z 28010KT 11/M05 A2993 RMK A01 T01051048  RH  034%=      5-min Rain = 0
KSP2 050458Z 29011KT 10/M05 A2993 RMK A01 T01041049  RH  034%=      5-min Rain = 0
KSP2 050459Z 29010KT 10/M05 A2993 RMK A01 T01031049  RH  034%=      5-min Rain = 0
KSP2 050500Z 31010KT 10/M05 A2993 RMK A01 T01031049  RH  034%=      5-min Rain = 0
KSP2 050501Z 32009KT 10/M05 A2993 RMK A01 T01021050  RH  034%=      5-min Rain = 0
KSP2 050502Z 32009KT 10/M05 A2993 RMK A01 T01011050  RH  034%=      5-min Rain = 0
KSP2 050503Z 29009KT 10/M05 A2993 RMK A01 T00991051  RH  034%=      5-min Rain = 0
KSP2 050504Z 28010KT 10/M05 A2992 RMK A01 T00981052  RH  034%=      5-min Rain = 0
KSP2 050505Z 29010KT 10/M05 A2992 RMK A01 T00961052  RH  035%=      5-min Rain = 0
KSP2 050506Z 29009KT 10/M05 A2993 RMK A01 T00961052  RH  035%=      5-min Rain = 0
KSP2 050507Z 29010KT 10/M05 A2993 RMK A01 T00951051  RH  035%=      5-min Rain = 0
KSP2 050508Z 29010KT 09/M05 A2993 RMK A01 T00941051  RH  035%=      5-min Rain = 0
KSP2 050509Z 29009KT 09/M05 A2992 RMK A01 T00941051  RH  036%=      5-min Rain = 0
KSP2 050510Z 30011KT 09/M05 A2992 RMK A01 T00941051  RH  036%=      5-min Rain = 0
KSP2 050511Z 30011KT 09/M05 A2993 RMK A01 T00941051  RH  036%=      5-min Rain = 0
KSP2 050512Z 30009KT 09/M05 A2993 RMK A01 T00941051  RH  036%=      5-min Rain = 0
KSP2 050513Z 30010KT 09/M05 A2993 RMK A01 T00941051  RH  035%=      5-min Rain = 0
KSP2 050514Z 29009KT 09/M05 A2993 RMK A01 T00931051  RH  036%=      5-min Rain = 0
KSP2 050515Z 29009KT 09/M05 A2992 RMK A01 T00931051  RH  036%=      5-min Rain = 0
KSP2 050516Z 29009KT 09/M05 A2992 RMK A01 T00931051  RH  036%=      5-min Rain = 0
KSP2 050517Z 30009KT 09/M05 A2992 RMK A01 T00921051  RH  036%=      5-min Rain = 0
KSP2 050518Z 29009KT 09/M05 A2992 RMK A01 T00911051  RH  036%=      5-min Rain = 0
KSP2 050519Z 29009KT 09/M05 A2992 RMK A01 T00901051  RH  036%=      5-min Rain = 0
KSP2 050520Z 28009KT 09/M05 A2992 RMK A01 T00891051  RH  037%=      5-min Rain = 0
KSP2 050521Z 28008KT 09/M05 A2992 RMK A01 T00881052  RH  037%=      5-min Rain = 0
KSP2 050522Z 28008KT 09/M05 A2992 RMK A01 T00871052  RH  037%=      5-min Rain = 0
KSP2 050523Z 28009KT 09/M05 A2992 RMK A01 T00861052  RH  037%=      5-min Rain = 0
KSP2 050524Z 28010KT 09/M05 A2992 RMK A01 T00861051  RH  037%=      5-min Rain = 0
KSP2 050525Z 28009KT 09/M05 A2992 RMK A01 T00861051  RH  037%=      5-min Rain = 0
KSP2 050526Z 28010KT 09/M05 A2992 RMK A01 T00861051  RH  037%=      5-min Rain = 0
KSP2 050527Z 29009KT 09/M05 A2992 RMK A01 T00861052  RH  037%=      5-min Rain = 0
KSP2 050528Z 29009KT 09/M05 A2992 RMK A01 T00861052  RH  037%=      5-min Rain = 0
KSP2 050529Z 29009KT 09/M05 A2992 RMK A01 T00861051  RH  037%=      5-min Rain = 0
KSP2 050530Z 29009KT 09/M05 A2992 RMK A01 T00851052  RH  037%=      5-min Rain = 0
KSP2 050531Z 28009KT 09/M05 A2992 RMK A01 T00851052  RH  037%=      5-min Rain = 0
KSP2 050532Z 29010KT 09/M05 A2992 RMK A01 T00851052  RH  038%=      5-min Rain = 0
KSP2 050533Z 28010KT 09/M05 A2992 RMK A01 T00851051  RH  038%=      5-min Rain = 0
KSP2 050534Z 29009KT 09/M05 A2992 RMK A01 T00851052  RH  037%=      5-min Rain = 0
KSP2 050535Z 29010KT 09/M05 A2992 RMK A01 T00861052  RH  037%=      5-min Rain = 0
KSP2 050536Z 28010KT 09/M05 A2992 RMK A01 T00861052  RH  037%=      5-min Rain = 0
KSP2 050537Z 29010KT 09/M05 A2992 RMK A01 T00861052  RH  037%=      5-min Rain = 0
KSP2 050538Z 28009KT 09/M05 A2992 RMK A01 T00871052  RH  037%=      5-min Rain = 0
KSP2 050539Z 28010KT 09/M05 A2992 RMK A01 T00871052  RH  037%=      5-min Rain = 0
KSP2 050540Z 28010KT 09/M05 A2992 RMK A01 T00881051  RH  037%=      5-min Rain = 0
KSP2 050541Z 28010KT 09/M05 A2992 RMK A01 T00891051  RH  037%=      5-min Rain = 0
KSP2 050542Z 28013KT 09/M05 A2992 RMK A01 T00911049  RH  037%=      5-min Rain = 0
KSP2 050543Z 28012KT 09/M05 A2992 RMK A01 T00931049  RH  036%=      5-min Rain = 0
KSP2 050544Z 28013KT 10/M05 A2992 RMK A01 T00951049  RH  036%=      5-min Rain = 0
KSP2 050545Z 28011KT 10/M05 A2991 RMK A01 T00961049  RH  035%=      5-min Rain = 0
KSP2 050546Z 28011KT 10/M05 A2991 RMK A01 T00971050  RH  035%=      5-min Rain = 0
KSP2 050547Z 28011KT 10/M05 A2991 RMK A01 T00961050  RH  035%=      5-min Rain = 0
KSP2 050548Z 27010KT 10/M05 A2991 RMK A01 T00951050  RH  035%=      5-min Rain = 0
KSP2 050549Z 27011KT 10/M05 A2991 RMK A01 T00951050  RH  035%=      5-min Rain = 0
KSP2 050550Z 28010KT 09/M05 A2991 RMK A01 T00941051  RH  036%=      5-min Rain = 0
KSP2 050551Z 28011KT 09/M05 A2991 RMK A01 T00931051  RH  036%=      5-min Rain = 0
KSP2 050552Z 28011KT 09/M05 A2991 RMK A01 T00931051  RH  036%=      5-min Rain = 0
KSP2 050553Z 28010KT 09/M05 A2991 RMK A01 T00921051  RH  036%=      5-min Rain = 0
KSP2 050554Z 28010KT 09/M05 A2991 RMK A01 T00911051  RH  036%=      5-min Rain = 0
KSP2 050555Z 28011KT 09/M05 A2991 RMK A01 T00911051  RH  036%=      5-min Rain = 0
KSP2 050556Z 28010KT 09/M05 A2991 RMK A01 T00901051  RH  036%=      5-min Rain = 0
KSP2 050557Z 28010KT 09/M05 A2992 RMK A01 T00901051  RH  037%=      5-min Rain = 0
KSP2 050558Z 28011KT 09/M05 A2992 RMK A01 T00891051  RH  037%=      5-min Rain = 0
KSP2 050559Z 28010KT 09/M05 A2992 RMK A01 T00891051  RH  037%=      5-min Rain = 0

Page generated in 0.0641 seconds.